<?xml version="1.0" encoding="UTF-8" standalone="no" ?>
<gpx xmlns="http://www.topografix.com/GPX/1/1" xmlns:xsi="http://www.w3.org/2001/XMLSchema-instance" xsi:schemaLocation="http://www.topografix.com/GPX/1/1 http://www.topografix.com/GPX/1/1/gpx.xsd" version="1.1" creator="VisuGPX - https://www.visugpx.com">
  <metadata>
    <name>Rando Frontenac</name>
    <desc><![CDATA[Rando de Frontenac]]></desc>
  </metadata>
  <trk>
    <name><![CDATA[Tracé 7 févr. 2016 9:31:23 AM]]></name>
    <trkseg>
      <trkpt lat="44.73519" lon="-0.16304">
        <ele>5</ele>
        <time>2016-02-07T08:31:23Z</time>
      </trkpt>
      <trkpt lat="44.7351" lon="-0.16303">
        <ele>3</ele>
        <time>2016-02-07T08:31:28Z</time>
      </trkpt>
      <trkpt lat="44.73509" lon="-0.16301">
        <ele>2</ele>
        <time>2016-02-07T08:31:32Z</time>
      </trkpt>
      <trkpt lat="44.73509" lon="-0.16301">
        <ele>2</ele>
        <time>2016-02-07T08:31:32Z</time>
      </trkpt>
      <trkpt lat="44.73563" lon="-0.16349">
        <ele>2</ele>
        <time>2016-02-07T08:32:09Z</time>
      </trkpt>
      <trkpt lat="44.73501" lon="-0.16305">
        <ele>3</ele>
        <time>2016-02-07T08:32:13Z</time>
      </trkpt>
      <trkpt lat="44.73509" lon="-0.16311">
        <ele>2</ele>
        <time>2016-02-07T08:32:20Z</time>
      </trkpt>
      <trkpt lat="44.73517" lon="-0.16315">
        <ele>2</ele>
        <time>2016-02-07T08:32:30Z</time>
      </trkpt>
      <trkpt lat="44.73525" lon="-0.16313">
        <ele>2</ele>
        <time>2016-02-07T08:32:36Z</time>
      </trkpt>
      <trkpt lat="44.73533" lon="-0.16312">
        <ele>2</ele>
        <time>2016-02-07T08:32:44Z</time>
      </trkpt>
      <trkpt lat="44.7354" lon="-0.16308">
        <ele>2</ele>
        <time>2016-02-07T08:32:51Z</time>
      </trkpt>
      <trkpt lat="44.73549" lon="-0.16308">
        <ele>2</ele>
        <time>2016-02-07T08:33:00Z</time>
      </trkpt>
      <trkpt lat="44.73557" lon="-0.16303">
        <ele>1</ele>
        <time>2016-02-07T08:33:13Z</time>
      </trkpt>
      <trkpt lat="44.73563" lon="-0.16304">
        <ele>1</ele>
        <time>2016-02-07T08:33:18Z</time>
      </trkpt>
      <trkpt lat="44.73573" lon="-0.16312">
        <ele>1</ele>
        <time>2016-02-07T08:33:23Z</time>
      </trkpt>
      <trkpt lat="44.73581" lon="-0.16312">
        <ele>54.7</ele>
        <time>2016-02-07T08:33:48Z</time>
      </trkpt>
      <trkpt lat="44.7359" lon="-0.16311">
        <ele>55.2</ele>
        <time>2016-02-07T08:33:57Z</time>
      </trkpt>
      <trkpt lat="44.73598" lon="-0.1631">
        <ele>55.8</ele>
        <time>2016-02-07T08:34:06Z</time>
      </trkpt>
      <trkpt lat="44.73606" lon="-0.16312">
        <ele>56.2</ele>
        <time>2016-02-07T08:34:14Z</time>
      </trkpt>
      <trkpt lat="44.73614" lon="-0.16311">
        <ele>56.7</ele>
        <time>2016-02-07T08:34:22Z</time>
      </trkpt>
      <trkpt lat="44.73623" lon="-0.16313">
        <ele>56.6</ele>
        <time>2016-02-07T08:34:32Z</time>
      </trkpt>
      <trkpt lat="44.73632" lon="-0.16314">
        <ele>56.6</ele>
        <time>2016-02-07T08:34:41Z</time>
      </trkpt>
      <trkpt lat="44.73639" lon="-0.16308">
        <ele>56.9</ele>
        <time>2016-02-07T08:34:47Z</time>
      </trkpt>
      <trkpt lat="44.73647" lon="-0.16304">
        <ele>57.6</ele>
        <time>2016-02-07T08:34:54Z</time>
      </trkpt>
      <trkpt lat="44.73655" lon="-0.163">
        <ele>58.2</ele>
        <time>2016-02-07T08:35:01Z</time>
      </trkpt>
      <trkpt lat="44.73663" lon="-0.163">
        <ele>58.8</ele>
        <time>2016-02-07T08:35:05Z</time>
      </trkpt>
      <trkpt lat="44.73674" lon="-0.163">
        <ele>59.2</ele>
        <time>2016-02-07T08:35:10Z</time>
      </trkpt>
      <trkpt lat="44.7368" lon="-0.16292">
        <ele>59.5</ele>
        <time>2016-02-07T08:35:20Z</time>
      </trkpt>
      <trkpt lat="44.73686" lon="-0.16284">
        <ele>59.7</ele>
        <time>2016-02-07T08:35:32Z</time>
      </trkpt>
      <trkpt lat="44.73695" lon="-0.16283">
        <ele>60</ele>
        <time>2016-02-07T08:35:42Z</time>
      </trkpt>
      <trkpt lat="44.73704" lon="-0.16282">
        <ele>60.3</ele>
        <time>2016-02-07T08:35:48Z</time>
      </trkpt>
      <trkpt lat="44.73712" lon="-0.16286">
        <ele>-1</ele>
        <time>2016-02-07T08:35:53Z</time>
      </trkpt>
      <trkpt lat="44.7372" lon="-0.16282">
        <ele>-1</ele>
        <time>2016-02-07T08:36:00Z</time>
      </trkpt>
      <trkpt lat="44.73729" lon="-0.16282">
        <ele>-1</ele>
        <time>2016-02-07T08:36:08Z</time>
      </trkpt>
      <trkpt lat="44.73731" lon="-0.16295">
        <ele>-1</ele>
        <time>2016-02-07T08:36:12Z</time>
      </trkpt>
      <trkpt lat="44.7374" lon="-0.16293">
        <ele>-1</ele>
        <time>2016-02-07T08:36:20Z</time>
      </trkpt>
      <trkpt lat="44.73747" lon="-0.1629">
        <ele>-1</ele>
        <time>2016-02-07T08:36:25Z</time>
      </trkpt>
      <trkpt lat="44.73756" lon="-0.1629">
        <ele>-2</ele>
        <time>2016-02-07T08:36:31Z</time>
      </trkpt>
      <trkpt lat="44.73763" lon="-0.16287">
        <ele>-2</ele>
        <time>2016-02-07T08:36:36Z</time>
      </trkpt>
      <trkpt lat="44.73765" lon="-0.16302">
        <ele>-2</ele>
        <time>2016-02-07T08:36:41Z</time>
      </trkpt>
      <trkpt lat="44.73773" lon="-0.16306">
        <ele>-3</ele>
        <time>2016-02-07T08:36:48Z</time>
      </trkpt>
      <trkpt lat="44.73779" lon="-0.16316">
        <ele>-4</ele>
        <time>2016-02-07T08:36:56Z</time>
      </trkpt>
      <trkpt lat="44.73778" lon="-0.16327">
        <ele>-5</ele>
        <time>2016-02-07T08:37:03Z</time>
      </trkpt>
      <trkpt lat="44.73771" lon="-0.16335">
        <ele>-5</ele>
        <time>2016-02-07T08:37:09Z</time>
      </trkpt>
      <trkpt lat="44.73777" lon="-0.16348">
        <ele>-6</ele>
        <time>2016-02-07T08:37:14Z</time>
      </trkpt>
      <trkpt lat="44.73773" lon="-0.16358">
        <ele>-7</ele>
        <time>2016-02-07T08:37:19Z</time>
      </trkpt>
      <trkpt lat="44.73769" lon="-0.16368">
        <ele>-7</ele>
        <time>2016-02-07T08:37:26Z</time>
      </trkpt>
      <trkpt lat="44.73767" lon="-0.16378">
        <ele>-8</ele>
        <time>2016-02-07T08:37:32Z</time>
      </trkpt>
      <trkpt lat="44.73764" lon="-0.16388">
        <ele>-10</ele>
        <time>2016-02-07T08:37:38Z</time>
      </trkpt>
      <trkpt lat="44.73761" lon="-0.16399">
        <ele>-10</ele>
        <time>2016-02-07T08:37:45Z</time>
      </trkpt>
      <trkpt lat="44.7376" lon="-0.16411">
        <ele>-8</ele>
        <time>2016-02-07T08:37:52Z</time>
      </trkpt>
      <trkpt lat="44.73762" lon="-0.16421">
        <ele>-6</ele>
        <time>2016-02-07T08:38:00Z</time>
      </trkpt>
      <trkpt lat="44.73766" lon="-0.1643">
        <ele>-4</ele>
        <time>2016-02-07T08:38:05Z</time>
      </trkpt>
      <trkpt lat="44.7377" lon="-0.1644">
        <ele>-3</ele>
        <time>2016-02-07T08:38:10Z</time>
      </trkpt>
      <trkpt lat="44.73763" lon="-0.16451">
        <ele>7</ele>
        <time>2016-02-07T08:38:15Z</time>
      </trkpt>
      <trkpt lat="44.73756" lon="-0.16466">
        <ele>23</ele>
        <time>2016-02-07T08:38:19Z</time>
      </trkpt>
      <trkpt lat="44.73759" lon="-0.16478">
        <ele>22</ele>
        <time>2016-02-07T08:38:28Z</time>
      </trkpt>
      <trkpt lat="44.73768" lon="-0.16479">
        <ele>20</ele>
        <time>2016-02-07T08:38:38Z</time>
      </trkpt>
      <trkpt lat="44.73776" lon="-0.16475">
        <ele>20</ele>
        <time>2016-02-07T08:38:49Z</time>
      </trkpt>
      <trkpt lat="44.73784" lon="-0.1647">
        <ele>18</ele>
        <time>2016-02-07T08:38:57Z</time>
      </trkpt>
      <trkpt lat="44.73792" lon="-0.16472">
        <ele>2</ele>
        <time>2016-02-07T08:39:03Z</time>
      </trkpt>
      <trkpt lat="44.73801" lon="-0.16471">
        <ele>-5</ele>
        <time>2016-02-07T08:39:11Z</time>
      </trkpt>
      <trkpt lat="44.7381" lon="-0.1647">
        <ele>-10</ele>
        <time>2016-02-07T08:39:22Z</time>
      </trkpt>
      <trkpt lat="44.73818" lon="-0.16467">
        <ele>-16</ele>
        <time>2016-02-07T08:39:31Z</time>
      </trkpt>
      <trkpt lat="44.73825" lon="-0.16467">
        <ele>-21</ele>
        <time>2016-02-07T08:39:39Z</time>
      </trkpt>
      <trkpt lat="44.73833" lon="-0.16467">
        <ele>-22</ele>
        <time>2016-02-07T08:39:49Z</time>
      </trkpt>
      <trkpt lat="44.73842" lon="-0.16468">
        <ele>-20</ele>
        <time>2016-02-07T08:39:53Z</time>
      </trkpt>
      <trkpt lat="44.73855" lon="-0.16469">
        <ele>-12</ele>
        <time>2016-02-07T08:39:57Z</time>
      </trkpt>
      <trkpt lat="44.73862" lon="-0.16471">
        <ele>-4</ele>
        <time>2016-02-07T08:40:01Z</time>
      </trkpt>
      <trkpt lat="44.7387" lon="-0.1647">
        <ele>-2</ele>
        <time>2016-02-07T08:40:07Z</time>
      </trkpt>
      <trkpt lat="44.73879" lon="-0.16473">
        <ele>-6</ele>
        <time>2016-02-07T08:40:14Z</time>
      </trkpt>
      <trkpt lat="44.73887" lon="-0.16473">
        <ele>-9</ele>
        <time>2016-02-07T08:40:21Z</time>
      </trkpt>
      <trkpt lat="44.73895" lon="-0.16473">
        <ele>-8</ele>
        <time>2016-02-07T08:40:26Z</time>
      </trkpt>
      <trkpt lat="44.73903" lon="-0.16474">
        <ele>-9</ele>
        <time>2016-02-07T08:40:32Z</time>
      </trkpt>
      <trkpt lat="44.73912" lon="-0.16477">
        <ele>-11</ele>
        <time>2016-02-07T08:40:38Z</time>
      </trkpt>
      <trkpt lat="44.7392" lon="-0.16478">
        <ele>-11</ele>
        <time>2016-02-07T08:40:44Z</time>
      </trkpt>
      <trkpt lat="44.73929" lon="-0.16479">
        <ele>-12</ele>
        <time>2016-02-07T08:40:51Z</time>
      </trkpt>
      <trkpt lat="44.73937" lon="-0.1648">
        <ele>-13</ele>
        <time>2016-02-07T08:40:58Z</time>
      </trkpt>
      <trkpt lat="44.73945" lon="-0.16481">
        <ele>-14</ele>
        <time>2016-02-07T08:41:06Z</time>
      </trkpt>
      <trkpt lat="44.73954" lon="-0.16482">
        <ele>-13</ele>
        <time>2016-02-07T08:41:12Z</time>
      </trkpt>
      <trkpt lat="44.73963" lon="-0.16483">
        <ele>-14</ele>
        <time>2016-02-07T08:41:19Z</time>
      </trkpt>
      <trkpt lat="44.73971" lon="-0.16485">
        <ele>-14</ele>
        <time>2016-02-07T08:41:25Z</time>
      </trkpt>
      <trkpt lat="44.73978" lon="-0.16488">
        <ele>-14</ele>
        <time>2016-02-07T08:41:31Z</time>
      </trkpt>
      <trkpt lat="44.73986" lon="-0.16489">
        <ele>-12</ele>
        <time>2016-02-07T08:41:36Z</time>
      </trkpt>
      <trkpt lat="44.73994" lon="-0.16489">
        <ele>-10</ele>
        <time>2016-02-07T08:41:43Z</time>
      </trkpt>
      <trkpt lat="44.74002" lon="-0.16491">
        <ele>-8</ele>
        <time>2016-02-07T08:41:50Z</time>
      </trkpt>
      <trkpt lat="44.7401" lon="-0.16493">
        <ele>-6</ele>
        <time>2016-02-07T08:41:57Z</time>
      </trkpt>
      <trkpt lat="44.74018" lon="-0.16495">
        <ele>-4</ele>
        <time>2016-02-07T08:42:02Z</time>
      </trkpt>
      <trkpt lat="44.74025" lon="-0.16498">
        <ele>-1</ele>
        <time>2016-02-07T08:42:08Z</time>
      </trkpt>
      <trkpt lat="44.74034" lon="-0.16496">
        <ele>-2</ele>
        <time>2016-02-07T08:42:15Z</time>
      </trkpt>
      <trkpt lat="44.74043" lon="-0.16496">
        <ele>51</ele>
        <time>2016-02-07T08:42:22Z</time>
      </trkpt>
      <trkpt lat="44.74051" lon="-0.16498">
        <ele>2</ele>
        <time>2016-02-07T08:42:28Z</time>
      </trkpt>
      <trkpt lat="44.74059" lon="-0.16501">
        <ele>5</ele>
        <time>2016-02-07T08:42:35Z</time>
      </trkpt>
      <trkpt lat="44.74066" lon="-0.16507">
        <ele>50.5</ele>
        <time>2016-02-07T08:42:42Z</time>
      </trkpt>
      <trkpt lat="44.74074" lon="-0.1651">
        <ele>4</ele>
        <time>2016-02-07T08:42:50Z</time>
      </trkpt>
      <trkpt lat="44.74081" lon="-0.1651">
        <ele>6</ele>
        <time>2016-02-07T08:42:56Z</time>
      </trkpt>
      <trkpt lat="44.74089" lon="-0.16509">
        <ele>5</ele>
        <time>2016-02-07T08:43:01Z</time>
      </trkpt>
      <trkpt lat="44.74098" lon="-0.1651">
        <ele>5</ele>
        <time>2016-02-07T08:43:08Z</time>
      </trkpt>
      <trkpt lat="44.74107" lon="-0.16509">
        <ele>50.3</ele>
        <time>2016-02-07T08:43:17Z</time>
      </trkpt>
      <trkpt lat="44.74115" lon="-0.16512">
        <ele>50.2</ele>
        <time>2016-02-07T08:43:24Z</time>
      </trkpt>
      <trkpt lat="44.74124" lon="-0.16515">
        <ele>-1</ele>
        <time>2016-02-07T08:43:31Z</time>
      </trkpt>
      <trkpt lat="44.74131" lon="-0.16515">
        <ele>50.3</ele>
        <time>2016-02-07T08:43:37Z</time>
      </trkpt>
      <trkpt lat="44.7414" lon="-0.16517">
        <ele>50.4</ele>
        <time>2016-02-07T08:43:45Z</time>
      </trkpt>
      <trkpt lat="44.74148" lon="-0.1652">
        <ele>1</ele>
        <time>2016-02-07T08:43:53Z</time>
      </trkpt>
      <trkpt lat="44.74156" lon="-0.16524">
        <ele>-2</ele>
        <time>2016-02-07T08:44:01Z</time>
      </trkpt>
      <trkpt lat="44.74164" lon="-0.16523">
        <ele>-9</ele>
        <time>2016-02-07T08:44:08Z</time>
      </trkpt>
      <trkpt lat="44.74171" lon="-0.16522">
        <ele>-3</ele>
        <time>2016-02-07T08:44:15Z</time>
      </trkpt>
      <trkpt lat="44.74179" lon="-0.16523">
        <ele>-1</ele>
        <time>2016-02-07T08:44:21Z</time>
      </trkpt>
      <trkpt lat="44.74188" lon="-0.16524">
        <ele>52.4</ele>
        <time>2016-02-07T08:44:28Z</time>
      </trkpt>
      <trkpt lat="44.74196" lon="-0.16523">
        <ele>53</ele>
        <time>2016-02-07T08:44:35Z</time>
      </trkpt>
      <trkpt lat="44.74205" lon="-0.16525">
        <ele>-5</ele>
        <time>2016-02-07T08:44:42Z</time>
      </trkpt>
      <trkpt lat="44.74212" lon="-0.16529">
        <ele>-8</ele>
        <time>2016-02-07T08:44:48Z</time>
      </trkpt>
      <trkpt lat="44.7422" lon="-0.16532">
        <ele>-7</ele>
        <time>2016-02-07T08:44:55Z</time>
      </trkpt>
      <trkpt lat="44.74228" lon="-0.16537">
        <ele>55.2</ele>
        <time>2016-02-07T08:45:04Z</time>
      </trkpt>
      <trkpt lat="44.74235" lon="-0.1654">
        <ele>3</ele>
        <time>2016-02-07T08:45:10Z</time>
      </trkpt>
      <trkpt lat="44.74243" lon="-0.16543">
        <ele>55.8</ele>
        <time>2016-02-07T08:45:16Z</time>
      </trkpt>
      <trkpt lat="44.7425" lon="-0.1655">
        <ele>-4</ele>
        <time>2016-02-07T08:45:21Z</time>
      </trkpt>
      <trkpt lat="44.74259" lon="-0.16552">
        <ele>-7</ele>
        <time>2016-02-07T08:45:27Z</time>
      </trkpt>
      <trkpt lat="44.74267" lon="-0.16554">
        <ele>-6</ele>
        <time>2016-02-07T08:45:33Z</time>
      </trkpt>
      <trkpt lat="44.74274" lon="-0.16561">
        <ele>-4</ele>
        <time>2016-02-07T08:45:40Z</time>
      </trkpt>
      <trkpt lat="44.74283" lon="-0.16562">
        <ele>-3</ele>
        <time>2016-02-07T08:45:47Z</time>
      </trkpt>
      <trkpt lat="44.74291" lon="-0.16561">
        <ele>5</ele>
        <time>2016-02-07T08:46:07Z</time>
      </trkpt>
      <trkpt lat="44.74295" lon="-0.16551">
        <ele>1</ele>
        <time>2016-02-07T08:46:13Z</time>
      </trkpt>
      <trkpt lat="44.74297" lon="-0.16539">
        <ele>58.7</ele>
        <time>2016-02-07T08:46:19Z</time>
      </trkpt>
      <trkpt lat="44.743" lon="-0.16529">
        <ele>58.8</ele>
        <time>2016-02-07T08:46:25Z</time>
      </trkpt>
      <trkpt lat="44.74302" lon="-0.16518">
        <ele>58.8</ele>
        <time>2016-02-07T08:46:31Z</time>
      </trkpt>
      <trkpt lat="44.74303" lon="-0.16506">
        <ele>58.8</ele>
        <time>2016-02-07T08:46:38Z</time>
      </trkpt>
      <trkpt lat="44.74303" lon="-0.16494">
        <ele>1</ele>
        <time>2016-02-07T08:46:44Z</time>
      </trkpt>
      <trkpt lat="44.74303" lon="-0.16481">
        <ele>1</ele>
        <time>2016-02-07T08:46:51Z</time>
      </trkpt>
      <trkpt lat="44.74304" lon="-0.1647">
        <ele>2</ele>
        <time>2016-02-07T08:46:57Z</time>
      </trkpt>
      <trkpt lat="44.74304" lon="-0.16458">
        <ele>4</ele>
        <time>2016-02-07T08:47:04Z</time>
      </trkpt>
      <trkpt lat="44.74304" lon="-0.16446">
        <ele>5</ele>
        <time>2016-02-07T08:47:11Z</time>
      </trkpt>
      <trkpt lat="44.74305" lon="-0.16436">
        <ele>5</ele>
        <time>2016-02-07T08:47:17Z</time>
      </trkpt>
      <trkpt lat="44.74306" lon="-0.16423">
        <ele>5</ele>
        <time>2016-02-07T08:47:24Z</time>
      </trkpt>
      <trkpt lat="44.74307" lon="-0.16412">
        <ele>7</ele>
        <time>2016-02-07T08:47:30Z</time>
      </trkpt>
      <trkpt lat="44.74307" lon="-0.164">
        <ele>8</ele>
        <time>2016-02-07T08:47:37Z</time>
      </trkpt>
      <trkpt lat="44.74309" lon="-0.16388">
        <ele>8</ele>
        <time>2016-02-07T08:47:44Z</time>
      </trkpt>
      <trkpt lat="44.7431" lon="-0.16376">
        <ele>8</ele>
        <time>2016-02-07T08:47:50Z</time>
      </trkpt>
      <trkpt lat="44.7431" lon="-0.16364">
        <ele>8</ele>
        <time>2016-02-07T08:47:57Z</time>
      </trkpt>
      <trkpt lat="44.74311" lon="-0.16352">
        <ele>8</ele>
        <time>2016-02-07T08:48:03Z</time>
      </trkpt>
      <trkpt lat="44.74312" lon="-0.16341">
        <ele>6</ele>
        <time>2016-02-07T08:48:08Z</time>
      </trkpt>
      <trkpt lat="44.74313" lon="-0.1633">
        <ele>4</ele>
        <time>2016-02-07T08:48:14Z</time>
      </trkpt>
      <trkpt lat="44.74313" lon="-0.16318">
        <ele>2</ele>
        <time>2016-02-07T08:48:20Z</time>
      </trkpt>
      <trkpt lat="44.74316" lon="-0.16307">
        <ele>3</ele>
        <time>2016-02-07T08:48:26Z</time>
      </trkpt>
      <trkpt lat="44.74318" lon="-0.16296">
        <ele>5</ele>
        <time>2016-02-07T08:48:33Z</time>
      </trkpt>
      <trkpt lat="44.74318" lon="-0.16283">
        <ele>4</ele>
        <time>2016-02-07T08:48:40Z</time>
      </trkpt>
      <trkpt lat="44.74318" lon="-0.16272">
        <ele>5</ele>
        <time>2016-02-07T08:48:46Z</time>
      </trkpt>
      <trkpt lat="44.74319" lon="-0.1626">
        <ele>3</ele>
        <time>2016-02-07T08:48:53Z</time>
      </trkpt>
      <trkpt lat="44.74318" lon="-0.16249">
        <ele>2</ele>
        <time>2016-02-07T08:48:59Z</time>
      </trkpt>
      <trkpt lat="44.74318" lon="-0.16237">
        <ele>2</ele>
        <time>2016-02-07T08:49:06Z</time>
      </trkpt>
      <trkpt lat="44.74318" lon="-0.16225">
        <ele>2</ele>
        <time>2016-02-07T08:49:13Z</time>
      </trkpt>
      <trkpt lat="44.74319" lon="-0.16212">
        <ele>2</ele>
        <time>2016-02-07T08:49:21Z</time>
      </trkpt>
      <trkpt lat="44.7432" lon="-0.16201">
        <ele>3</ele>
        <time>2016-02-07T08:49:28Z</time>
      </trkpt>
      <trkpt lat="44.74321" lon="-0.16188">
        <ele>4</ele>
        <time>2016-02-07T08:49:35Z</time>
      </trkpt>
      <trkpt lat="44.74322" lon="-0.16176">
        <ele>5</ele>
        <time>2016-02-07T08:49:42Z</time>
      </trkpt>
      <trkpt lat="44.74324" lon="-0.16165">
        <ele>6</ele>
        <time>2016-02-07T08:49:49Z</time>
      </trkpt>
      <trkpt lat="44.74324" lon="-0.16153">
        <ele>5</ele>
        <time>2016-02-07T08:49:56Z</time>
      </trkpt>
      <trkpt lat="44.74324" lon="-0.16141">
        <ele>5</ele>
        <time>2016-02-07T08:50:03Z</time>
      </trkpt>
      <trkpt lat="44.74325" lon="-0.16129">
        <ele>4</ele>
        <time>2016-02-07T08:50:10Z</time>
      </trkpt>
      <trkpt lat="44.74325" lon="-0.16117">
        <ele>4</ele>
        <time>2016-02-07T08:50:17Z</time>
      </trkpt>
      <trkpt lat="44.74325" lon="-0.16105">
        <ele>4</ele>
        <time>2016-02-07T08:50:24Z</time>
      </trkpt>
      <trkpt lat="44.74325" lon="-0.16094">
        <ele>4</ele>
        <time>2016-02-07T08:50:30Z</time>
      </trkpt>
      <trkpt lat="44.74325" lon="-0.16082">
        <ele>4</ele>
        <time>2016-02-07T08:50:36Z</time>
      </trkpt>
      <trkpt lat="44.74327" lon="-0.1607">
        <ele>4</ele>
        <time>2016-02-07T08:50:43Z</time>
      </trkpt>
      <trkpt lat="44.74329" lon="-0.16059">
        <ele>6</ele>
        <time>2016-02-07T08:50:50Z</time>
      </trkpt>
      <trkpt lat="44.7433" lon="-0.16048">
        <ele>6</ele>
        <time>2016-02-07T08:50:56Z</time>
      </trkpt>
      <trkpt lat="44.74331" lon="-0.16036">
        <ele>7</ele>
        <time>2016-02-07T08:51:02Z</time>
      </trkpt>
      <trkpt lat="44.74331" lon="-0.16024">
        <ele>7</ele>
        <time>2016-02-07T08:51:09Z</time>
      </trkpt>
      <trkpt lat="44.74332" lon="-0.16013">
        <ele>7</ele>
        <time>2016-02-07T08:51:15Z</time>
      </trkpt>
      <trkpt lat="44.74333" lon="-0.16002">
        <ele>7</ele>
        <time>2016-02-07T08:51:21Z</time>
      </trkpt>
      <trkpt lat="44.74333" lon="-0.1599">
        <ele>7</ele>
        <time>2016-02-07T08:51:28Z</time>
      </trkpt>
      <trkpt lat="44.74334" lon="-0.15978">
        <ele>8</ele>
        <time>2016-02-07T08:51:36Z</time>
      </trkpt>
      <trkpt lat="44.74335" lon="-0.15967">
        <ele>7</ele>
        <time>2016-02-07T08:51:42Z</time>
      </trkpt>
      <trkpt lat="44.74336" lon="-0.15956">
        <ele>6</ele>
        <time>2016-02-07T08:51:48Z</time>
      </trkpt>
      <trkpt lat="44.74337" lon="-0.15943">
        <ele>6</ele>
        <time>2016-02-07T08:51:55Z</time>
      </trkpt>
      <trkpt lat="44.74338" lon="-0.15931">
        <ele>4</ele>
        <time>2016-02-07T08:52:03Z</time>
      </trkpt>
      <trkpt lat="44.74338" lon="-0.1592">
        <ele>4</ele>
        <time>2016-02-07T08:52:09Z</time>
      </trkpt>
      <trkpt lat="44.74339" lon="-0.15908">
        <ele>4</ele>
        <time>2016-02-07T08:52:16Z</time>
      </trkpt>
      <trkpt lat="44.7434" lon="-0.15896">
        <ele>3</ele>
        <time>2016-02-07T08:52:23Z</time>
      </trkpt>
      <trkpt lat="44.7434" lon="-0.15883">
        <ele>3</ele>
        <time>2016-02-07T08:52:30Z</time>
      </trkpt>
      <trkpt lat="44.74342" lon="-0.15872">
        <ele>4</ele>
        <time>2016-02-07T08:52:36Z</time>
      </trkpt>
      <trkpt lat="44.74342" lon="-0.1586">
        <ele>5</ele>
        <time>2016-02-07T08:52:42Z</time>
      </trkpt>
      <trkpt lat="44.74343" lon="-0.15849">
        <ele>5</ele>
        <time>2016-02-07T08:52:49Z</time>
      </trkpt>
      <trkpt lat="44.74345" lon="-0.15837">
        <ele>5</ele>
        <time>2016-02-07T08:52:56Z</time>
      </trkpt>
      <trkpt lat="44.74345" lon="-0.15826">
        <ele>5</ele>
        <time>2016-02-07T08:53:04Z</time>
      </trkpt>
      <trkpt lat="44.74347" lon="-0.15815">
        <ele>4</ele>
        <time>2016-02-07T08:53:11Z</time>
      </trkpt>
      <trkpt lat="44.74347" lon="-0.15804">
        <ele>2</ele>
        <time>2016-02-07T08:53:17Z</time>
      </trkpt>
      <trkpt lat="44.74348" lon="-0.15792">
        <ele>2</ele>
        <time>2016-02-07T08:53:24Z</time>
      </trkpt>
      <trkpt lat="44.74349" lon="-0.15781">
        <ele>2</ele>
        <time>2016-02-07T08:53:30Z</time>
      </trkpt>
      <trkpt lat="44.7435" lon="-0.1577">
        <ele>3</ele>
        <time>2016-02-07T08:53:36Z</time>
      </trkpt>
      <trkpt lat="44.74352" lon="-0.15758">
        <ele>5</ele>
        <time>2016-02-07T08:53:43Z</time>
      </trkpt>
      <trkpt lat="44.74354" lon="-0.15746">
        <ele>5</ele>
        <time>2016-02-07T08:53:50Z</time>
      </trkpt>
      <trkpt lat="44.74354" lon="-0.15733">
        <ele>5</ele>
        <time>2016-02-07T08:53:57Z</time>
      </trkpt>
      <trkpt lat="44.74354" lon="-0.15722">
        <ele>5</ele>
        <time>2016-02-07T08:54:03Z</time>
      </trkpt>
      <trkpt lat="44.74356" lon="-0.1571">
        <ele>5</ele>
        <time>2016-02-07T08:54:10Z</time>
      </trkpt>
      <trkpt lat="44.74357" lon="-0.15699">
        <ele>3</ele>
        <time>2016-02-07T08:54:16Z</time>
      </trkpt>
      <trkpt lat="44.74358" lon="-0.15688">
        <ele>2</ele>
        <time>2016-02-07T08:54:23Z</time>
      </trkpt>
      <trkpt lat="44.74359" lon="-0.15676">
        <ele>2</ele>
        <time>2016-02-07T08:54:30Z</time>
      </trkpt>
      <trkpt lat="44.74361" lon="-0.15665">
        <ele>3</ele>
        <time>2016-02-07T08:54:37Z</time>
      </trkpt>
      <trkpt lat="44.74363" lon="-0.15652">
        <ele>4</ele>
        <time>2016-02-07T08:54:44Z</time>
      </trkpt>
      <trkpt lat="44.74364" lon="-0.1564">
        <ele>5</ele>
        <time>2016-02-07T08:54:52Z</time>
      </trkpt>
      <trkpt lat="44.74365" lon="-0.15629">
        <ele>5</ele>
        <time>2016-02-07T08:54:58Z</time>
      </trkpt>
      <trkpt lat="44.74365" lon="-0.15618">
        <ele>7</ele>
        <time>2016-02-07T08:55:05Z</time>
      </trkpt>
      <trkpt lat="44.74366" lon="-0.15606">
        <ele>7</ele>
        <time>2016-02-07T08:55:12Z</time>
      </trkpt>
      <trkpt lat="44.74366" lon="-0.15594">
        <ele>7</ele>
        <time>2016-02-07T08:55:18Z</time>
      </trkpt>
      <trkpt lat="44.74366" lon="-0.15582">
        <ele>7</ele>
        <time>2016-02-07T08:55:25Z</time>
      </trkpt>
      <trkpt lat="44.74367" lon="-0.1557">
        <ele>7</ele>
        <time>2016-02-07T08:55:32Z</time>
      </trkpt>
      <trkpt lat="44.74367" lon="-0.15558">
        <ele>7</ele>
        <time>2016-02-07T08:55:39Z</time>
      </trkpt>
      <trkpt lat="44.74367" lon="-0.15547">
        <ele>8</ele>
        <time>2016-02-07T08:55:45Z</time>
      </trkpt>
      <trkpt lat="44.74368" lon="-0.15534">
        <ele>9</ele>
        <time>2016-02-07T08:55:52Z</time>
      </trkpt>
      <trkpt lat="44.74368" lon="-0.15524">
        <ele>9</ele>
        <time>2016-02-07T08:55:58Z</time>
      </trkpt>
      <trkpt lat="44.74368" lon="-0.15512">
        <ele>9</ele>
        <time>2016-02-07T08:56:04Z</time>
      </trkpt>
      <trkpt lat="44.7437" lon="-0.155">
        <ele>11</ele>
        <time>2016-02-07T08:56:10Z</time>
      </trkpt>
      <trkpt lat="44.74371" lon="-0.15488">
        <ele>13</ele>
        <time>2016-02-07T08:56:16Z</time>
      </trkpt>
      <trkpt lat="44.74373" lon="-0.15476">
        <ele>15</ele>
        <time>2016-02-07T08:56:23Z</time>
      </trkpt>
      <trkpt lat="44.74374" lon="-0.15465">
        <ele>16</ele>
        <time>2016-02-07T08:56:30Z</time>
      </trkpt>
      <trkpt lat="44.74377" lon="-0.15454">
        <ele>16</ele>
        <time>2016-02-07T08:56:38Z</time>
      </trkpt>
      <trkpt lat="44.74378" lon="-0.15442">
        <ele>16</ele>
        <time>2016-02-07T08:56:44Z</time>
      </trkpt>
      <trkpt lat="44.74379" lon="-0.15432">
        <ele>15</ele>
        <time>2016-02-07T08:56:50Z</time>
      </trkpt>
      <trkpt lat="44.74381" lon="-0.1542">
        <ele>14</ele>
        <time>2016-02-07T08:56:56Z</time>
      </trkpt>
      <trkpt lat="44.74383" lon="-0.15409">
        <ele>14</ele>
        <time>2016-02-07T08:57:02Z</time>
      </trkpt>
      <trkpt lat="44.74384" lon="-0.15399">
        <ele>14</ele>
        <time>2016-02-07T08:57:08Z</time>
      </trkpt>
      <trkpt lat="44.74386" lon="-0.15387">
        <ele>14</ele>
        <time>2016-02-07T08:57:15Z</time>
      </trkpt>
      <trkpt lat="44.74388" lon="-0.15376">
        <ele>15</ele>
        <time>2016-02-07T08:57:21Z</time>
      </trkpt>
      <trkpt lat="44.7439" lon="-0.15365">
        <ele>17</ele>
        <time>2016-02-07T08:57:28Z</time>
      </trkpt>
      <trkpt lat="44.74391" lon="-0.15352">
        <ele>17</ele>
        <time>2016-02-07T08:57:35Z</time>
      </trkpt>
      <trkpt lat="44.74392" lon="-0.1534">
        <ele>15</ele>
        <time>2016-02-07T08:57:42Z</time>
      </trkpt>
      <trkpt lat="44.74392" lon="-0.15327">
        <ele>14</ele>
        <time>2016-02-07T08:57:49Z</time>
      </trkpt>
      <trkpt lat="44.74394" lon="-0.15315">
        <ele>15</ele>
        <time>2016-02-07T08:57:57Z</time>
      </trkpt>
      <trkpt lat="44.74396" lon="-0.15303">
        <ele>14</ele>
        <time>2016-02-07T08:58:04Z</time>
      </trkpt>
      <trkpt lat="44.74398" lon="-0.15292">
        <ele>13</ele>
        <time>2016-02-07T08:58:11Z</time>
      </trkpt>
      <trkpt lat="44.74398" lon="-0.15279">
        <ele>12</ele>
        <time>2016-02-07T08:58:18Z</time>
      </trkpt>
      <trkpt lat="44.74399" lon="-0.15267">
        <ele>11</ele>
        <time>2016-02-07T08:58:25Z</time>
      </trkpt>
      <trkpt lat="44.744" lon="-0.15255">
        <ele>12</ele>
        <time>2016-02-07T08:58:32Z</time>
      </trkpt>
      <trkpt lat="44.74402" lon="-0.15244">
        <ele>14</ele>
        <time>2016-02-07T08:58:39Z</time>
      </trkpt>
      <trkpt lat="44.74403" lon="-0.15233">
        <ele>14</ele>
        <time>2016-02-07T08:58:45Z</time>
      </trkpt>
      <trkpt lat="44.74404" lon="-0.1522">
        <ele>16</ele>
        <time>2016-02-07T08:58:53Z</time>
      </trkpt>
      <trkpt lat="44.74403" lon="-0.15209">
        <ele>17</ele>
        <time>2016-02-07T08:59:00Z</time>
      </trkpt>
      <trkpt lat="44.74397" lon="-0.15201">
        <ele>20</ele>
        <time>2016-02-07T08:59:08Z</time>
      </trkpt>
      <trkpt lat="44.74388" lon="-0.15202">
        <ele>20</ele>
        <time>2016-02-07T08:59:16Z</time>
      </trkpt>
      <trkpt lat="44.7438" lon="-0.15204">
        <ele>19</ele>
        <time>2016-02-07T08:59:24Z</time>
      </trkpt>
      <trkpt lat="44.74372" lon="-0.15208">
        <ele>18</ele>
        <time>2016-02-07T08:59:33Z</time>
      </trkpt>
      <trkpt lat="44.74363" lon="-0.15211">
        <ele>16</ele>
        <time>2016-02-07T08:59:41Z</time>
      </trkpt>
      <trkpt lat="44.74355" lon="-0.15215">
        <ele>15</ele>
        <time>2016-02-07T08:59:48Z</time>
      </trkpt>
      <trkpt lat="44.74347" lon="-0.15219">
        <ele>14</ele>
        <time>2016-02-07T08:59:55Z</time>
      </trkpt>
      <trkpt lat="44.7434" lon="-0.15223">
        <ele>11</ele>
        <time>2016-02-07T09:00:01Z</time>
      </trkpt>
      <trkpt lat="44.74332" lon="-0.15227">
        <ele>12</ele>
        <time>2016-02-07T09:00:08Z</time>
      </trkpt>
      <trkpt lat="44.74323" lon="-0.1523">
        <ele>12</ele>
        <time>2016-02-07T09:00:15Z</time>
      </trkpt>
      <trkpt lat="44.74316" lon="-0.15235">
        <ele>12</ele>
        <time>2016-02-07T09:00:23Z</time>
      </trkpt>
      <trkpt lat="44.74309" lon="-0.15239">
        <ele>11</ele>
        <time>2016-02-07T09:00:29Z</time>
      </trkpt>
      <trkpt lat="44.74302" lon="-0.15242">
        <ele>10</ele>
        <time>2016-02-07T09:00:34Z</time>
      </trkpt>
      <trkpt lat="44.74294" lon="-0.15246">
        <ele>11</ele>
        <time>2016-02-07T09:00:40Z</time>
      </trkpt>
      <trkpt lat="44.74286" lon="-0.1525">
        <ele>12</ele>
        <time>2016-02-07T09:00:48Z</time>
      </trkpt>
      <trkpt lat="44.74279" lon="-0.15254">
        <ele>11</ele>
        <time>2016-02-07T09:00:55Z</time>
      </trkpt>
      <trkpt lat="44.74271" lon="-0.15257">
        <ele>12</ele>
        <time>2016-02-07T09:01:02Z</time>
      </trkpt>
      <trkpt lat="44.74264" lon="-0.15261">
        <ele>11</ele>
        <time>2016-02-07T09:01:09Z</time>
      </trkpt>
      <trkpt lat="44.74256" lon="-0.15265">
        <ele>9</ele>
        <time>2016-02-07T09:01:17Z</time>
      </trkpt>
      <trkpt lat="44.74248" lon="-0.15268">
        <ele>10</ele>
        <time>2016-02-07T09:01:24Z</time>
      </trkpt>
      <trkpt lat="44.74241" lon="-0.15271">
        <ele>11</ele>
        <time>2016-02-07T09:01:30Z</time>
      </trkpt>
      <trkpt lat="44.74233" lon="-0.15273">
        <ele>12</ele>
        <time>2016-02-07T09:01:36Z</time>
      </trkpt>
      <trkpt lat="44.74225" lon="-0.15275">
        <ele>13</ele>
        <time>2016-02-07T09:01:43Z</time>
      </trkpt>
      <trkpt lat="44.74217" lon="-0.15277">
        <ele>13</ele>
        <time>2016-02-07T09:01:50Z</time>
      </trkpt>
      <trkpt lat="44.7421" lon="-0.1527">
        <ele>15</ele>
        <time>2016-02-07T09:01:58Z</time>
      </trkpt>
      <trkpt lat="44.74213" lon="-0.15259">
        <ele>11</ele>
        <time>2016-02-07T09:02:09Z</time>
      </trkpt>
      <trkpt lat="44.74211" lon="-0.15247">
        <ele>10</ele>
        <time>2016-02-07T09:02:57Z</time>
      </trkpt>
      <trkpt lat="44.74211" lon="-0.15245">
        <ele>11</ele>
        <time>2016-02-07T09:04:14Z</time>
      </trkpt>
      <trkpt lat="44.74214" lon="-0.15229">
        <ele>3</ele>
        <time>2016-02-07T09:04:19Z</time>
      </trkpt>
      <trkpt lat="44.74219" lon="-0.1522">
        <ele>4</ele>
        <time>2016-02-07T09:04:25Z</time>
      </trkpt>
      <trkpt lat="44.74223" lon="-0.15209">
        <ele>5</ele>
        <time>2016-02-07T09:04:32Z</time>
      </trkpt>
      <trkpt lat="44.74227" lon="-0.15198">
        <ele>7</ele>
        <time>2016-02-07T09:04:40Z</time>
      </trkpt>
      <trkpt lat="44.74226" lon="-0.15187">
        <ele>8</ele>
        <time>2016-02-07T09:04:47Z</time>
      </trkpt>
      <trkpt lat="44.74229" lon="-0.15176">
        <ele>8</ele>
        <time>2016-02-07T09:04:55Z</time>
      </trkpt>
      <trkpt lat="44.74235" lon="-0.15168">
        <ele>10</ele>
        <time>2016-02-07T09:05:04Z</time>
      </trkpt>
      <trkpt lat="44.74238" lon="-0.15157">
        <ele>13</ele>
        <time>2016-02-07T09:05:14Z</time>
      </trkpt>
      <trkpt lat="44.74241" lon="-0.15146">
        <ele>16</ele>
        <time>2016-02-07T09:05:21Z</time>
      </trkpt>
      <trkpt lat="44.74247" lon="-0.15136">
        <ele>18</ele>
        <time>2016-02-07T09:05:26Z</time>
      </trkpt>
      <trkpt lat="44.7425" lon="-0.15125">
        <ele>19</ele>
        <time>2016-02-07T09:05:33Z</time>
      </trkpt>
      <trkpt lat="44.74253" lon="-0.15114">
        <ele>18</ele>
        <time>2016-02-07T09:05:40Z</time>
      </trkpt>
      <trkpt lat="44.74255" lon="-0.15103">
        <ele>17</ele>
        <time>2016-02-07T09:05:47Z</time>
      </trkpt>
      <trkpt lat="44.74258" lon="-0.15091">
        <ele>17</ele>
        <time>2016-02-07T09:05:56Z</time>
      </trkpt>
      <trkpt lat="44.74259" lon="-0.15079">
        <ele>17</ele>
        <time>2016-02-07T09:06:05Z</time>
      </trkpt>
      <trkpt lat="44.74261" lon="-0.15067">
        <ele>17</ele>
        <time>2016-02-07T09:06:13Z</time>
      </trkpt>
      <trkpt lat="44.74262" lon="-0.15055">
        <ele>18</ele>
        <time>2016-02-07T09:06:20Z</time>
      </trkpt>
      <trkpt lat="44.74261" lon="-0.15044">
        <ele>17</ele>
        <time>2016-02-07T09:06:28Z</time>
      </trkpt>
      <trkpt lat="44.74262" lon="-0.15032">
        <ele>16</ele>
        <time>2016-02-07T09:06:36Z</time>
      </trkpt>
      <trkpt lat="44.74263" lon="-0.1502">
        <ele>17</ele>
        <time>2016-02-07T09:06:44Z</time>
      </trkpt>
      <trkpt lat="44.74263" lon="-0.15008">
        <ele>18</ele>
        <time>2016-02-07T09:06:51Z</time>
      </trkpt>
      <trkpt lat="44.74263" lon="-0.14996">
        <ele>17</ele>
        <time>2016-02-07T09:06:58Z</time>
      </trkpt>
      <trkpt lat="44.74265" lon="-0.14985">
        <ele>17</ele>
        <time>2016-02-07T09:07:05Z</time>
      </trkpt>
      <trkpt lat="44.74269" lon="-0.14975">
        <ele>15</ele>
        <time>2016-02-07T09:07:13Z</time>
      </trkpt>
      <trkpt lat="44.74275" lon="-0.14966">
        <ele>13</ele>
        <time>2016-02-07T09:07:21Z</time>
      </trkpt>
      <trkpt lat="44.74281" lon="-0.14958">
        <ele>13</ele>
        <time>2016-02-07T09:07:31Z</time>
      </trkpt>
      <trkpt lat="44.74286" lon="-0.1495">
        <ele>14</ele>
        <time>2016-02-07T09:07:39Z</time>
      </trkpt>
      <trkpt lat="44.74291" lon="-0.14941">
        <ele>19</ele>
        <time>2016-02-07T09:07:46Z</time>
      </trkpt>
      <trkpt lat="44.74294" lon="-0.1493">
        <ele>20</ele>
        <time>2016-02-07T09:07:53Z</time>
      </trkpt>
      <trkpt lat="44.74295" lon="-0.14918">
        <ele>23</ele>
        <time>2016-02-07T09:08:02Z</time>
      </trkpt>
      <trkpt lat="44.74297" lon="-0.14906">
        <ele>24</ele>
        <time>2016-02-07T09:08:11Z</time>
      </trkpt>
      <trkpt lat="44.74298" lon="-0.14894">
        <ele>24</ele>
        <time>2016-02-07T09:08:20Z</time>
      </trkpt>
      <trkpt lat="44.74299" lon="-0.14881">
        <ele>26</ele>
        <time>2016-02-07T09:08:29Z</time>
      </trkpt>
      <trkpt lat="44.74302" lon="-0.1487">
        <ele>27</ele>
        <time>2016-02-07T09:08:37Z</time>
      </trkpt>
      <trkpt lat="44.74305" lon="-0.14858">
        <ele>26</ele>
        <time>2016-02-07T09:08:46Z</time>
      </trkpt>
      <trkpt lat="44.74307" lon="-0.14847">
        <ele>25</ele>
        <time>2016-02-07T09:08:54Z</time>
      </trkpt>
      <trkpt lat="44.74311" lon="-0.14836">
        <ele>25</ele>
        <time>2016-02-07T09:09:02Z</time>
      </trkpt>
      <trkpt lat="44.74315" lon="-0.14824">
        <ele>24</ele>
        <time>2016-02-07T09:09:11Z</time>
      </trkpt>
      <trkpt lat="44.74318" lon="-0.14814">
        <ele>24</ele>
        <time>2016-02-07T09:09:18Z</time>
      </trkpt>
      <trkpt lat="44.7432" lon="-0.14802">
        <ele>26</ele>
        <time>2016-02-07T09:09:26Z</time>
      </trkpt>
      <trkpt lat="44.74323" lon="-0.14791">
        <ele>25</ele>
        <time>2016-02-07T09:09:34Z</time>
      </trkpt>
      <trkpt lat="44.74326" lon="-0.14781">
        <ele>22</ele>
        <time>2016-02-07T09:09:43Z</time>
      </trkpt>
      <trkpt lat="44.74327" lon="-0.14769">
        <ele>23</ele>
        <time>2016-02-07T09:09:51Z</time>
      </trkpt>
      <trkpt lat="44.7433" lon="-0.14757">
        <ele>25</ele>
        <time>2016-02-07T09:09:59Z</time>
      </trkpt>
      <trkpt lat="44.74332" lon="-0.14746">
        <ele>24</ele>
        <time>2016-02-07T09:10:10Z</time>
      </trkpt>
      <trkpt lat="44.74335" lon="-0.14739">
        <ele>23</ele>
        <time>2016-02-07T09:11:21Z</time>
      </trkpt>
      <trkpt lat="44.74337" lon="-0.14726">
        <ele>34</ele>
        <time>2016-02-07T09:11:26Z</time>
      </trkpt>
      <trkpt lat="44.7434" lon="-0.14715">
        <ele>33</ele>
        <time>2016-02-07T09:11:37Z</time>
      </trkpt>
      <trkpt lat="44.74345" lon="-0.14706">
        <ele>38</ele>
        <time>2016-02-07T09:12:12Z</time>
      </trkpt>
      <trkpt lat="44.74344" lon="-0.14694">
        <ele>35</ele>
        <time>2016-02-07T09:12:21Z</time>
      </trkpt>
      <trkpt lat="44.74346" lon="-0.14683">
        <ele>31</ele>
        <time>2016-02-07T09:12:32Z</time>
      </trkpt>
      <trkpt lat="44.74353" lon="-0.14679">
        <ele>36</ele>
        <time>2016-02-07T09:13:07Z</time>
      </trkpt>
      <trkpt lat="44.74357" lon="-0.14673">
        <ele>36</ele>
        <time>2016-02-07T09:15:11Z</time>
      </trkpt>
      <trkpt lat="44.74355" lon="-0.14661">
        <ele>32</ele>
        <time>2016-02-07T09:15:16Z</time>
      </trkpt>
      <trkpt lat="44.74358" lon="-0.14652">
        <ele>31</ele>
        <time>2016-02-07T09:15:44Z</time>
      </trkpt>
      <trkpt lat="44.74364" lon="-0.14639">
        <ele>32</ele>
        <time>2016-02-07T09:15:48Z</time>
      </trkpt>
      <trkpt lat="44.74364" lon="-0.14627">
        <ele>30</ele>
        <time>2016-02-07T09:15:58Z</time>
      </trkpt>
      <trkpt lat="44.74365" lon="-0.14615">
        <ele>28</ele>
        <time>2016-02-07T09:16:09Z</time>
      </trkpt>
      <trkpt lat="44.74371" lon="-0.14608">
        <ele>28</ele>
        <time>2016-02-07T09:16:18Z</time>
      </trkpt>
      <trkpt lat="44.74369" lon="-0.14596">
        <ele>32</ele>
        <time>2016-02-07T09:16:24Z</time>
      </trkpt>
      <trkpt lat="44.74369" lon="-0.14584">
        <ele>32</ele>
        <time>2016-02-07T09:16:31Z</time>
      </trkpt>
      <trkpt lat="44.74367" lon="-0.14572">
        <ele>33</ele>
        <time>2016-02-07T09:16:40Z</time>
      </trkpt>
      <trkpt lat="44.74363" lon="-0.14561">
        <ele>35</ele>
        <time>2016-02-07T09:16:47Z</time>
      </trkpt>
      <trkpt lat="44.74363" lon="-0.14549">
        <ele>35</ele>
        <time>2016-02-07T09:16:56Z</time>
      </trkpt>
      <trkpt lat="44.74364" lon="-0.14537">
        <ele>37</ele>
        <time>2016-02-07T09:17:03Z</time>
      </trkpt>
      <trkpt lat="44.74364" lon="-0.14525">
        <ele>38</ele>
        <time>2016-02-07T09:17:09Z</time>
      </trkpt>
      <trkpt lat="44.74364" lon="-0.14514">
        <ele>38</ele>
        <time>2016-02-07T09:17:16Z</time>
      </trkpt>
      <trkpt lat="44.74366" lon="-0.14502">
        <ele>37</ele>
        <time>2016-02-07T09:17:24Z</time>
      </trkpt>
      <trkpt lat="44.74367" lon="-0.14491">
        <ele>39</ele>
        <time>2016-02-07T09:17:34Z</time>
      </trkpt>
      <trkpt lat="44.74368" lon="-0.14479">
        <ele>39</ele>
        <time>2016-02-07T09:17:42Z</time>
      </trkpt>
      <trkpt lat="44.74368" lon="-0.14468">
        <ele>40</ele>
        <time>2016-02-07T09:17:49Z</time>
      </trkpt>
      <trkpt lat="44.74369" lon="-0.14457">
        <ele>38</ele>
        <time>2016-02-07T09:17:56Z</time>
      </trkpt>
      <trkpt lat="44.74371" lon="-0.14446">
        <ele>38</ele>
        <time>2016-02-07T09:18:14Z</time>
      </trkpt>
      <trkpt lat="44.74373" lon="-0.14435">
        <ele>38</ele>
        <time>2016-02-07T09:18:21Z</time>
      </trkpt>
      <trkpt lat="44.74375" lon="-0.14423">
        <ele>39</ele>
        <time>2016-02-07T09:18:29Z</time>
      </trkpt>
      <trkpt lat="44.74376" lon="-0.14411">
        <ele>40</ele>
        <time>2016-02-07T09:18:37Z</time>
      </trkpt>
      <trkpt lat="44.74378" lon="-0.144">
        <ele>41</ele>
        <time>2016-02-07T09:18:44Z</time>
      </trkpt>
      <trkpt lat="44.74379" lon="-0.14389">
        <ele>40</ele>
        <time>2016-02-07T09:18:51Z</time>
      </trkpt>
      <trkpt lat="44.7438" lon="-0.14377">
        <ele>40</ele>
        <time>2016-02-07T09:18:58Z</time>
      </trkpt>
      <trkpt lat="44.74382" lon="-0.14366">
        <ele>39</ele>
        <time>2016-02-07T09:19:05Z</time>
      </trkpt>
      <trkpt lat="44.74383" lon="-0.14354">
        <ele>37</ele>
        <time>2016-02-07T09:19:12Z</time>
      </trkpt>
      <trkpt lat="44.74383" lon="-0.14342">
        <ele>36</ele>
        <time>2016-02-07T09:19:21Z</time>
      </trkpt>
      <trkpt lat="44.74381" lon="-0.1433">
        <ele>30</ele>
        <time>2016-02-07T09:19:31Z</time>
      </trkpt>
      <trkpt lat="44.74373" lon="-0.14326">
        <ele>24</ele>
        <time>2016-02-07T09:19:43Z</time>
      </trkpt>
      <trkpt lat="44.74364" lon="-0.14327">
        <ele>20</ele>
        <time>2016-02-07T09:19:52Z</time>
      </trkpt>
      <trkpt lat="44.74357" lon="-0.14328">
        <ele>19</ele>
        <time>2016-02-07T09:20:00Z</time>
      </trkpt>
      <trkpt lat="44.74348" lon="-0.14327">
        <ele>20</ele>
        <time>2016-02-07T09:20:12Z</time>
      </trkpt>
      <trkpt lat="44.74342" lon="-0.14322">
        <ele>25</ele>
        <time>2016-02-07T09:20:18Z</time>
      </trkpt>
      <trkpt lat="44.74337" lon="-0.14312">
        <ele>30</ele>
        <time>2016-02-07T09:20:24Z</time>
      </trkpt>
      <trkpt lat="44.74336" lon="-0.14301">
        <ele>30</ele>
        <time>2016-02-07T09:20:31Z</time>
      </trkpt>
      <trkpt lat="44.74333" lon="-0.1429">
        <ele>31</ele>
        <time>2016-02-07T09:20:40Z</time>
      </trkpt>
      <trkpt lat="44.7433" lon="-0.14279">
        <ele>31</ele>
        <time>2016-02-07T09:20:47Z</time>
      </trkpt>
      <trkpt lat="44.74327" lon="-0.14269">
        <ele>31</ele>
        <time>2016-02-07T09:20:54Z</time>
      </trkpt>
      <trkpt lat="44.74324" lon="-0.14258">
        <ele>31</ele>
        <time>2016-02-07T09:21:01Z</time>
      </trkpt>
      <trkpt lat="44.74321" lon="-0.14248">
        <ele>33</ele>
        <time>2016-02-07T09:21:08Z</time>
      </trkpt>
      <trkpt lat="44.74318" lon="-0.14236">
        <ele>32</ele>
        <time>2016-02-07T09:21:16Z</time>
      </trkpt>
      <trkpt lat="44.74316" lon="-0.14224">
        <ele>33</ele>
        <time>2016-02-07T09:21:24Z</time>
      </trkpt>
      <trkpt lat="44.74313" lon="-0.14212">
        <ele>33</ele>
        <time>2016-02-07T09:21:33Z</time>
      </trkpt>
      <trkpt lat="44.74311" lon="-0.14201">
        <ele>32</ele>
        <time>2016-02-07T09:21:41Z</time>
      </trkpt>
      <trkpt lat="44.74309" lon="-0.14188">
        <ele>30</ele>
        <time>2016-02-07T09:21:51Z</time>
      </trkpt>
      <trkpt lat="44.74307" lon="-0.14176">
        <ele>29</ele>
        <time>2016-02-07T09:21:59Z</time>
      </trkpt>
      <trkpt lat="44.74304" lon="-0.14165">
        <ele>31</ele>
        <time>2016-02-07T09:22:07Z</time>
      </trkpt>
      <trkpt lat="44.74302" lon="-0.14153">
        <ele>31</ele>
        <time>2016-02-07T09:22:18Z</time>
      </trkpt>
      <trkpt lat="44.743" lon="-0.14142">
        <ele>30</ele>
        <time>2016-02-07T09:22:26Z</time>
      </trkpt>
      <trkpt lat="44.74298" lon="-0.1413">
        <ele>28</ele>
        <time>2016-02-07T09:22:34Z</time>
      </trkpt>
      <trkpt lat="44.74298" lon="-0.14118">
        <ele>27</ele>
        <time>2016-02-07T09:22:43Z</time>
      </trkpt>
      <trkpt lat="44.74296" lon="-0.14106">
        <ele>27</ele>
        <time>2016-02-07T09:22:52Z</time>
      </trkpt>
      <trkpt lat="44.74296" lon="-0.14094">
        <ele>26</ele>
        <time>2016-02-07T09:23:02Z</time>
      </trkpt>
      <trkpt lat="44.74295" lon="-0.14082">
        <ele>22</ele>
        <time>2016-02-07T09:23:14Z</time>
      </trkpt>
      <trkpt lat="44.74294" lon="-0.1407">
        <ele>21</ele>
        <time>2016-02-07T09:23:24Z</time>
      </trkpt>
      <trkpt lat="44.74293" lon="-0.14058">
        <ele>18</ele>
        <time>2016-02-07T09:23:32Z</time>
      </trkpt>
      <trkpt lat="44.74288" lon="-0.14048">
        <ele>21</ele>
        <time>2016-02-07T09:23:39Z</time>
      </trkpt>
      <trkpt lat="44.74285" lon="-0.14037">
        <ele>21</ele>
        <time>2016-02-07T09:23:47Z</time>
      </trkpt>
      <trkpt lat="44.74283" lon="-0.14026">
        <ele>21</ele>
        <time>2016-02-07T09:23:56Z</time>
      </trkpt>
      <trkpt lat="44.74279" lon="-0.14015">
        <ele>21</ele>
        <time>2016-02-07T09:24:05Z</time>
      </trkpt>
      <trkpt lat="44.74274" lon="-0.14006">
        <ele>23</ele>
        <time>2016-02-07T09:24:12Z</time>
      </trkpt>
      <trkpt lat="44.74273" lon="-0.13995">
        <ele>23</ele>
        <time>2016-02-07T09:24:23Z</time>
      </trkpt>
      <trkpt lat="44.74275" lon="-0.13984">
        <ele>25</ele>
        <time>2016-02-07T09:24:34Z</time>
      </trkpt>
      <trkpt lat="44.74269" lon="-0.13976">
        <ele>20</ele>
        <time>2016-02-07T09:25:17Z</time>
      </trkpt>
      <trkpt lat="44.74265" lon="-0.13972">
        <ele>20</ele>
        <time>2016-02-07T09:25:45Z</time>
      </trkpt>
      <trkpt lat="44.74256" lon="-0.13965">
        <ele>31</ele>
        <time>2016-02-07T09:25:49Z</time>
      </trkpt>
      <trkpt lat="44.74249" lon="-0.13959">
        <ele>31</ele>
        <time>2016-02-07T09:26:09Z</time>
      </trkpt>
      <trkpt lat="44.7424" lon="-0.13958">
        <ele>27</ele>
        <time>2016-02-07T09:26:21Z</time>
      </trkpt>
      <trkpt lat="44.74232" lon="-0.13956">
        <ele>22</ele>
        <time>2016-02-07T09:26:31Z</time>
      </trkpt>
      <trkpt lat="44.74225" lon="-0.13951">
        <ele>19</ele>
        <time>2016-02-07T09:26:42Z</time>
      </trkpt>
      <trkpt lat="44.74217" lon="-0.13943">
        <ele>17</ele>
        <time>2016-02-07T09:26:51Z</time>
      </trkpt>
      <trkpt lat="44.74211" lon="-0.13936">
        <ele>16</ele>
        <time>2016-02-07T09:27:02Z</time>
      </trkpt>
      <trkpt lat="44.74206" lon="-0.13925">
        <ele>18</ele>
        <time>2016-02-07T09:27:11Z</time>
      </trkpt>
      <trkpt lat="44.74202" lon="-0.13914">
        <ele>20</ele>
        <time>2016-02-07T09:27:18Z</time>
      </trkpt>
      <trkpt lat="44.74199" lon="-0.13903">
        <ele>21</ele>
        <time>2016-02-07T09:27:25Z</time>
      </trkpt>
      <trkpt lat="44.74197" lon="-0.13892">
        <ele>21</ele>
        <time>2016-02-07T09:27:36Z</time>
      </trkpt>
      <trkpt lat="44.74197" lon="-0.13881">
        <ele>15</ele>
        <time>2016-02-07T09:28:48Z</time>
      </trkpt>
      <trkpt lat="44.74194" lon="-0.1387">
        <ele>17</ele>
        <time>2016-02-07T09:28:56Z</time>
      </trkpt>
      <trkpt lat="44.74193" lon="-0.13858">
        <ele>17</ele>
        <time>2016-02-07T09:29:06Z</time>
      </trkpt>
      <trkpt lat="44.74194" lon="-0.13847">
        <ele>17</ele>
        <time>2016-02-07T09:29:15Z</time>
      </trkpt>
      <trkpt lat="44.74193" lon="-0.13835">
        <ele>17</ele>
        <time>2016-02-07T09:29:22Z</time>
      </trkpt>
      <trkpt lat="44.74192" lon="-0.13823">
        <ele>17</ele>
        <time>2016-02-07T09:29:30Z</time>
      </trkpt>
      <trkpt lat="44.74191" lon="-0.13811">
        <ele>15</ele>
        <time>2016-02-07T09:29:38Z</time>
      </trkpt>
      <trkpt lat="44.74189" lon="-0.138">
        <ele>17</ele>
        <time>2016-02-07T09:29:45Z</time>
      </trkpt>
      <trkpt lat="44.74186" lon="-0.13788">
        <ele>18</ele>
        <time>2016-02-07T09:29:53Z</time>
      </trkpt>
      <trkpt lat="44.74183" lon="-0.13777">
        <ele>21</ele>
        <time>2016-02-07T09:30:00Z</time>
      </trkpt>
      <trkpt lat="44.74181" lon="-0.13765">
        <ele>21</ele>
        <time>2016-02-07T09:30:07Z</time>
      </trkpt>
      <trkpt lat="44.74179" lon="-0.13755">
        <ele>21</ele>
        <time>2016-02-07T09:30:14Z</time>
      </trkpt>
      <trkpt lat="44.74175" lon="-0.13744">
        <ele>21</ele>
        <time>2016-02-07T09:30:21Z</time>
      </trkpt>
      <trkpt lat="44.74172" lon="-0.13733">
        <ele>21</ele>
        <time>2016-02-07T09:30:28Z</time>
      </trkpt>
      <trkpt lat="44.7417" lon="-0.13721">
        <ele>21</ele>
        <time>2016-02-07T09:30:35Z</time>
      </trkpt>
      <trkpt lat="44.74169" lon="-0.13709">
        <ele>22</ele>
        <time>2016-02-07T09:30:42Z</time>
      </trkpt>
      <trkpt lat="44.74168" lon="-0.13698">
        <ele>20</ele>
        <time>2016-02-07T09:30:48Z</time>
      </trkpt>
      <trkpt lat="44.74166" lon="-0.13686">
        <ele>20</ele>
        <time>2016-02-07T09:30:56Z</time>
      </trkpt>
      <trkpt lat="44.74165" lon="-0.13674">
        <ele>18</ele>
        <time>2016-02-07T09:31:04Z</time>
      </trkpt>
      <trkpt lat="44.74164" lon="-0.13661">
        <ele>17</ele>
        <time>2016-02-07T09:31:11Z</time>
      </trkpt>
      <trkpt lat="44.74162" lon="-0.1365">
        <ele>16</ele>
        <time>2016-02-07T09:31:18Z</time>
      </trkpt>
      <trkpt lat="44.74161" lon="-0.13637">
        <ele>17</ele>
        <time>2016-02-07T09:31:25Z</time>
      </trkpt>
      <trkpt lat="44.7416" lon="-0.13625">
        <ele>18</ele>
        <time>2016-02-07T09:31:32Z</time>
      </trkpt>
      <trkpt lat="44.74159" lon="-0.13613">
        <ele>19</ele>
        <time>2016-02-07T09:31:39Z</time>
      </trkpt>
      <trkpt lat="44.74159" lon="-0.13602">
        <ele>18</ele>
        <time>2016-02-07T09:31:45Z</time>
      </trkpt>
      <trkpt lat="44.74157" lon="-0.13591">
        <ele>19</ele>
        <time>2016-02-07T09:31:51Z</time>
      </trkpt>
      <trkpt lat="44.74156" lon="-0.1358">
        <ele>19</ele>
        <time>2016-02-07T09:31:57Z</time>
      </trkpt>
      <trkpt lat="44.74153" lon="-0.13569">
        <ele>18</ele>
        <time>2016-02-07T09:32:04Z</time>
      </trkpt>
      <trkpt lat="44.74147" lon="-0.1356">
        <ele>17</ele>
        <time>2016-02-07T09:32:10Z</time>
      </trkpt>
      <trkpt lat="44.7414" lon="-0.13554">
        <ele>15</ele>
        <time>2016-02-07T09:32:16Z</time>
      </trkpt>
      <trkpt lat="44.74133" lon="-0.13549">
        <ele>13</ele>
        <time>2016-02-07T09:32:23Z</time>
      </trkpt>
      <trkpt lat="44.74125" lon="-0.13545">
        <ele>12</ele>
        <time>2016-02-07T09:32:30Z</time>
      </trkpt>
      <trkpt lat="44.74116" lon="-0.13541">
        <ele>13</ele>
        <time>2016-02-07T09:32:37Z</time>
      </trkpt>
      <trkpt lat="44.74108" lon="-0.13537">
        <ele>14</ele>
        <time>2016-02-07T09:32:44Z</time>
      </trkpt>
      <trkpt lat="44.741" lon="-0.13532">
        <ele>12</ele>
        <time>2016-02-07T09:32:51Z</time>
      </trkpt>
      <trkpt lat="44.74092" lon="-0.13527">
        <ele>10</ele>
        <time>2016-02-07T09:32:59Z</time>
      </trkpt>
      <trkpt lat="44.74084" lon="-0.13522">
        <ele>11</ele>
        <time>2016-02-07T09:33:06Z</time>
      </trkpt>
      <trkpt lat="44.74077" lon="-0.13518">
        <ele>12</ele>
        <time>2016-02-07T09:33:12Z</time>
      </trkpt>
      <trkpt lat="44.74069" lon="-0.13514">
        <ele>15</ele>
        <time>2016-02-07T09:33:18Z</time>
      </trkpt>
      <trkpt lat="44.74061" lon="-0.1351">
        <ele>17</ele>
        <time>2016-02-07T09:33:25Z</time>
      </trkpt>
      <trkpt lat="44.74053" lon="-0.13505">
        <ele>19</ele>
        <time>2016-02-07T09:33:32Z</time>
      </trkpt>
      <trkpt lat="44.74045" lon="-0.13501">
        <ele>19</ele>
        <time>2016-02-07T09:33:39Z</time>
      </trkpt>
      <trkpt lat="44.74037" lon="-0.13497">
        <ele>19</ele>
        <time>2016-02-07T09:33:47Z</time>
      </trkpt>
      <trkpt lat="44.7403" lon="-0.1349">
        <ele>17</ele>
        <time>2016-02-07T09:33:55Z</time>
      </trkpt>
      <trkpt lat="44.74024" lon="-0.13484">
        <ele>13</ele>
        <time>2016-02-07T09:34:04Z</time>
      </trkpt>
      <trkpt lat="44.74015" lon="-0.13481">
        <ele>14</ele>
        <time>2016-02-07T09:34:12Z</time>
      </trkpt>
      <trkpt lat="44.74007" lon="-0.13485">
        <ele>14</ele>
        <time>2016-02-07T09:34:21Z</time>
      </trkpt>
      <trkpt lat="44.73999" lon="-0.1349">
        <ele>12</ele>
        <time>2016-02-07T09:34:30Z</time>
      </trkpt>
      <trkpt lat="44.73992" lon="-0.13493">
        <ele>12</ele>
        <time>2016-02-07T09:34:36Z</time>
      </trkpt>
      <trkpt lat="44.73984" lon="-0.13497">
        <ele>13</ele>
        <time>2016-02-07T09:34:42Z</time>
      </trkpt>
      <trkpt lat="44.73976" lon="-0.135">
        <ele>16</ele>
        <time>2016-02-07T09:34:49Z</time>
      </trkpt>
      <trkpt lat="44.73967" lon="-0.13502">
        <ele>18</ele>
        <time>2016-02-07T09:34:55Z</time>
      </trkpt>
      <trkpt lat="44.73959" lon="-0.13504">
        <ele>19</ele>
        <time>2016-02-07T09:35:02Z</time>
      </trkpt>
      <trkpt lat="44.73951" lon="-0.13507">
        <ele>19</ele>
        <time>2016-02-07T09:35:08Z</time>
      </trkpt>
      <trkpt lat="44.73943" lon="-0.1351">
        <ele>20</ele>
        <time>2016-02-07T09:35:14Z</time>
      </trkpt>
      <trkpt lat="44.73935" lon="-0.13513">
        <ele>22</ele>
        <time>2016-02-07T09:35:20Z</time>
      </trkpt>
      <trkpt lat="44.73927" lon="-0.13516">
        <ele>23</ele>
        <time>2016-02-07T09:35:26Z</time>
      </trkpt>
      <trkpt lat="44.73918" lon="-0.13518">
        <ele>22</ele>
        <time>2016-02-07T09:35:34Z</time>
      </trkpt>
      <trkpt lat="44.7391" lon="-0.13521">
        <ele>19</ele>
        <time>2016-02-07T09:35:42Z</time>
      </trkpt>
      <trkpt lat="44.73903" lon="-0.13525">
        <ele>19</ele>
        <time>2016-02-07T09:35:49Z</time>
      </trkpt>
      <trkpt lat="44.73894" lon="-0.13529">
        <ele>20</ele>
        <time>2016-02-07T09:35:57Z</time>
      </trkpt>
      <trkpt lat="44.73886" lon="-0.13531">
        <ele>21</ele>
        <time>2016-02-07T09:36:06Z</time>
      </trkpt>
      <trkpt lat="44.73877" lon="-0.13532">
        <ele>20</ele>
        <time>2016-02-07T09:36:16Z</time>
      </trkpt>
      <trkpt lat="44.7387" lon="-0.13533">
        <ele>15</ele>
        <time>2016-02-07T09:36:56Z</time>
      </trkpt>
      <trkpt lat="44.73859" lon="-0.13536">
        <ele>16</ele>
        <time>2016-02-07T09:37:00Z</time>
      </trkpt>
      <trkpt lat="44.73852" lon="-0.13529">
        <ele>13</ele>
        <time>2016-02-07T09:38:38Z</time>
      </trkpt>
      <trkpt lat="44.73844" lon="-0.1353">
        <ele>19</ele>
        <time>2016-02-07T09:38:46Z</time>
      </trkpt>
      <trkpt lat="44.73837" lon="-0.13531">
        <ele>17</ele>
        <time>2016-02-07T09:40:17Z</time>
      </trkpt>
      <trkpt lat="44.73828" lon="-0.13529">
        <ele>26</ele>
        <time>2016-02-07T09:40:25Z</time>
      </trkpt>
      <trkpt lat="44.7382" lon="-0.13533">
        <ele>26</ele>
        <time>2016-02-07T09:40:34Z</time>
      </trkpt>
      <trkpt lat="44.73812" lon="-0.13535">
        <ele>21</ele>
        <time>2016-02-07T09:40:44Z</time>
      </trkpt>
      <trkpt lat="44.73804" lon="-0.13538">
        <ele>22</ele>
        <time>2016-02-07T09:40:51Z</time>
      </trkpt>
      <trkpt lat="44.73796" lon="-0.13539">
        <ele>19</ele>
        <time>2016-02-07T09:40:57Z</time>
      </trkpt>
      <trkpt lat="44.73789" lon="-0.13539">
        <ele>17</ele>
        <time>2016-02-07T09:41:04Z</time>
      </trkpt>
      <trkpt lat="44.73781" lon="-0.1354">
        <ele>16</ele>
        <time>2016-02-07T09:41:09Z</time>
      </trkpt>
      <trkpt lat="44.73772" lon="-0.1354">
        <ele>15</ele>
        <time>2016-02-07T09:41:15Z</time>
      </trkpt>
      <trkpt lat="44.73764" lon="-0.13539">
        <ele>15</ele>
        <time>2016-02-07T09:41:21Z</time>
      </trkpt>
      <trkpt lat="44.73756" lon="-0.1354">
        <ele>15</ele>
        <time>2016-02-07T09:41:27Z</time>
      </trkpt>
      <trkpt lat="44.73747" lon="-0.1354">
        <ele>16</ele>
        <time>2016-02-07T09:41:34Z</time>
      </trkpt>
      <trkpt lat="44.73739" lon="-0.13542">
        <ele>18</ele>
        <time>2016-02-07T09:41:41Z</time>
      </trkpt>
      <trkpt lat="44.7373" lon="-0.13544">
        <ele>19</ele>
        <time>2016-02-07T09:41:48Z</time>
      </trkpt>
      <trkpt lat="44.73722" lon="-0.13547">
        <ele>20</ele>
        <time>2016-02-07T09:41:53Z</time>
      </trkpt>
      <trkpt lat="44.73715" lon="-0.13552">
        <ele>20</ele>
        <time>2016-02-07T09:42:00Z</time>
      </trkpt>
      <trkpt lat="44.73706" lon="-0.13556">
        <ele>17</ele>
        <time>2016-02-07T09:42:08Z</time>
      </trkpt>
      <trkpt lat="44.73698" lon="-0.1356">
        <ele>12</ele>
        <time>2016-02-07T09:42:18Z</time>
      </trkpt>
      <trkpt lat="44.7369" lon="-0.13566">
        <ele>8</ele>
        <time>2016-02-07T09:42:28Z</time>
      </trkpt>
      <trkpt lat="44.73682" lon="-0.13571">
        <ele>10</ele>
        <time>2016-02-07T09:42:35Z</time>
      </trkpt>
      <trkpt lat="44.73673" lon="-0.13571">
        <ele>8</ele>
        <time>2016-02-07T09:42:45Z</time>
      </trkpt>
      <trkpt lat="44.73664" lon="-0.13573">
        <ele>8</ele>
        <time>2016-02-07T09:42:54Z</time>
      </trkpt>
      <trkpt lat="44.73656" lon="-0.13572">
        <ele>9</ele>
        <time>2016-02-07T09:43:02Z</time>
      </trkpt>
      <trkpt lat="44.73648" lon="-0.13571">
        <ele>9</ele>
        <time>2016-02-07T09:43:09Z</time>
      </trkpt>
      <trkpt lat="44.73641" lon="-0.13569">
        <ele>10</ele>
        <time>2016-02-07T09:43:15Z</time>
      </trkpt>
      <trkpt lat="44.73632" lon="-0.13566">
        <ele>14</ele>
        <time>2016-02-07T09:43:21Z</time>
      </trkpt>
      <trkpt lat="44.73624" lon="-0.13563">
        <ele>14</ele>
        <time>2016-02-07T09:43:30Z</time>
      </trkpt>
      <trkpt lat="44.73616" lon="-0.1356">
        <ele>15</ele>
        <time>2016-02-07T09:43:38Z</time>
      </trkpt>
      <trkpt lat="44.73608" lon="-0.13557">
        <ele>14</ele>
        <time>2016-02-07T09:43:47Z</time>
      </trkpt>
      <trkpt lat="44.736" lon="-0.13554">
        <ele>16</ele>
        <time>2016-02-07T09:43:54Z</time>
      </trkpt>
      <trkpt lat="44.73593" lon="-0.1355">
        <ele>16</ele>
        <time>2016-02-07T09:44:01Z</time>
      </trkpt>
      <trkpt lat="44.73584" lon="-0.13548">
        <ele>12</ele>
        <time>2016-02-07T09:44:10Z</time>
      </trkpt>
      <trkpt lat="44.73577" lon="-0.13547">
        <ele>14</ele>
        <time>2016-02-07T09:44:16Z</time>
      </trkpt>
      <trkpt lat="44.73568" lon="-0.13548">
        <ele>17</ele>
        <time>2016-02-07T09:44:22Z</time>
      </trkpt>
      <trkpt lat="44.7356" lon="-0.13547">
        <ele>17</ele>
        <time>2016-02-07T09:44:29Z</time>
      </trkpt>
      <trkpt lat="44.73552" lon="-0.13546">
        <ele>17</ele>
        <time>2016-02-07T09:44:38Z</time>
      </trkpt>
      <trkpt lat="44.73544" lon="-0.13545">
        <ele>16</ele>
        <time>2016-02-07T09:44:45Z</time>
      </trkpt>
      <trkpt lat="44.73535" lon="-0.13548">
        <ele>19</ele>
        <time>2016-02-07T09:44:51Z</time>
      </trkpt>
      <trkpt lat="44.73526" lon="-0.1355">
        <ele>24</ele>
        <time>2016-02-07T09:44:58Z</time>
      </trkpt>
      <trkpt lat="44.73518" lon="-0.13548">
        <ele>25</ele>
        <time>2016-02-07T09:45:05Z</time>
      </trkpt>
      <trkpt lat="44.7351" lon="-0.13547">
        <ele>26</ele>
        <time>2016-02-07T09:45:11Z</time>
      </trkpt>
      <trkpt lat="44.73502" lon="-0.13546">
        <ele>28</ele>
        <time>2016-02-07T09:45:18Z</time>
      </trkpt>
      <trkpt lat="44.73494" lon="-0.13544">
        <ele>29</ele>
        <time>2016-02-07T09:45:25Z</time>
      </trkpt>
      <trkpt lat="44.73486" lon="-0.13541">
        <ele>28</ele>
        <time>2016-02-07T09:45:32Z</time>
      </trkpt>
      <trkpt lat="44.73478" lon="-0.13538">
        <ele>29</ele>
        <time>2016-02-07T09:45:40Z</time>
      </trkpt>
      <trkpt lat="44.7347" lon="-0.13533">
        <ele>30</ele>
        <time>2016-02-07T09:45:48Z</time>
      </trkpt>
      <trkpt lat="44.73463" lon="-0.13526">
        <ele>30</ele>
        <time>2016-02-07T09:45:55Z</time>
      </trkpt>
      <trkpt lat="44.73455" lon="-0.13521">
        <ele>32</ele>
        <time>2016-02-07T09:46:01Z</time>
      </trkpt>
      <trkpt lat="44.73448" lon="-0.13516">
        <ele>33</ele>
        <time>2016-02-07T09:46:08Z</time>
      </trkpt>
      <trkpt lat="44.7344" lon="-0.1351">
        <ele>33</ele>
        <time>2016-02-07T09:46:16Z</time>
      </trkpt>
      <trkpt lat="44.73434" lon="-0.13503">
        <ele>32</ele>
        <time>2016-02-07T09:46:25Z</time>
      </trkpt>
      <trkpt lat="44.73427" lon="-0.13497">
        <ele>32</ele>
        <time>2016-02-07T09:46:32Z</time>
      </trkpt>
      <trkpt lat="44.73419" lon="-0.13492">
        <ele>32</ele>
        <time>2016-02-07T09:46:40Z</time>
      </trkpt>
      <trkpt lat="44.73413" lon="-0.13485">
        <ele>31</ele>
        <time>2016-02-07T09:46:47Z</time>
      </trkpt>
      <trkpt lat="44.73407" lon="-0.13477">
        <ele>31</ele>
        <time>2016-02-07T09:46:54Z</time>
      </trkpt>
      <trkpt lat="44.734" lon="-0.13471">
        <ele>30</ele>
        <time>2016-02-07T09:47:01Z</time>
      </trkpt>
      <trkpt lat="44.73392" lon="-0.13467">
        <ele>31</ele>
        <time>2016-02-07T09:47:09Z</time>
      </trkpt>
      <trkpt lat="44.73386" lon="-0.13458">
        <ele>30</ele>
        <time>2016-02-07T09:47:16Z</time>
      </trkpt>
      <trkpt lat="44.73379" lon="-0.13451">
        <ele>30</ele>
        <time>2016-02-07T09:47:23Z</time>
      </trkpt>
      <trkpt lat="44.73372" lon="-0.13445">
        <ele>32</ele>
        <time>2016-02-07T09:47:29Z</time>
      </trkpt>
      <trkpt lat="44.73364" lon="-0.1344">
        <ele>33</ele>
        <time>2016-02-07T09:47:36Z</time>
      </trkpt>
      <trkpt lat="44.73356" lon="-0.13435">
        <ele>33</ele>
        <time>2016-02-07T09:47:44Z</time>
      </trkpt>
      <trkpt lat="44.73349" lon="-0.13429">
        <ele>33</ele>
        <time>2016-02-07T09:47:51Z</time>
      </trkpt>
      <trkpt lat="44.73342" lon="-0.13422">
        <ele>32</ele>
        <time>2016-02-07T09:47:59Z</time>
      </trkpt>
      <trkpt lat="44.73335" lon="-0.13415">
        <ele>33</ele>
        <time>2016-02-07T09:48:07Z</time>
      </trkpt>
      <trkpt lat="44.73327" lon="-0.1341">
        <ele>31</ele>
        <time>2016-02-07T09:48:16Z</time>
      </trkpt>
      <trkpt lat="44.73319" lon="-0.13407">
        <ele>32</ele>
        <time>2016-02-07T09:48:24Z</time>
      </trkpt>
      <trkpt lat="44.73311" lon="-0.13404">
        <ele>32</ele>
        <time>2016-02-07T09:48:31Z</time>
      </trkpt>
      <trkpt lat="44.73303" lon="-0.13401">
        <ele>31</ele>
        <time>2016-02-07T09:48:40Z</time>
      </trkpt>
      <trkpt lat="44.73295" lon="-0.13398">
        <ele>30</ele>
        <time>2016-02-07T09:48:48Z</time>
      </trkpt>
      <trkpt lat="44.73286" lon="-0.13395">
        <ele>30</ele>
        <time>2016-02-07T09:48:56Z</time>
      </trkpt>
      <trkpt lat="44.73278" lon="-0.13394">
        <ele>30</ele>
        <time>2016-02-07T09:49:03Z</time>
      </trkpt>
      <trkpt lat="44.7327" lon="-0.13394">
        <ele>29</ele>
        <time>2016-02-07T09:49:09Z</time>
      </trkpt>
      <trkpt lat="44.73262" lon="-0.13393">
        <ele>29</ele>
        <time>2016-02-07T09:49:16Z</time>
      </trkpt>
      <trkpt lat="44.73253" lon="-0.13393">
        <ele>28</ele>
        <time>2016-02-07T09:49:23Z</time>
      </trkpt>
      <trkpt lat="44.73245" lon="-0.13395">
        <ele>28</ele>
        <time>2016-02-07T09:49:30Z</time>
      </trkpt>
      <trkpt lat="44.73236" lon="-0.13398">
        <ele>29</ele>
        <time>2016-02-07T09:49:37Z</time>
      </trkpt>
      <trkpt lat="44.73228" lon="-0.134">
        <ele>25</ele>
        <time>2016-02-07T09:49:46Z</time>
      </trkpt>
      <trkpt lat="44.7322" lon="-0.13401">
        <ele>25</ele>
        <time>2016-02-07T09:49:53Z</time>
      </trkpt>
      <trkpt lat="44.73213" lon="-0.13401">
        <ele>24</ele>
        <time>2016-02-07T09:49:59Z</time>
      </trkpt>
      <trkpt lat="44.73204" lon="-0.13402">
        <ele>25</ele>
        <time>2016-02-07T09:50:05Z</time>
      </trkpt>
      <trkpt lat="44.73197" lon="-0.13405">
        <ele>24</ele>
        <time>2016-02-07T09:50:12Z</time>
      </trkpt>
      <trkpt lat="44.73193" lon="-0.13416">
        <ele>23</ele>
        <time>2016-02-07T09:50:22Z</time>
      </trkpt>
      <trkpt lat="44.73195" lon="-0.13428">
        <ele>20</ele>
        <time>2016-02-07T09:50:44Z</time>
      </trkpt>
      <trkpt lat="44.73196" lon="-0.13439">
        <ele>20</ele>
        <time>2016-02-07T09:50:53Z</time>
      </trkpt>
      <trkpt lat="44.73197" lon="-0.1345">
        <ele>20</ele>
        <time>2016-02-07T09:51:00Z</time>
      </trkpt>
      <trkpt lat="44.73198" lon="-0.13462">
        <ele>18</ele>
        <time>2016-02-07T09:51:08Z</time>
      </trkpt>
      <trkpt lat="44.73199" lon="-0.13474">
        <ele>17</ele>
        <time>2016-02-07T09:51:16Z</time>
      </trkpt>
      <trkpt lat="44.73199" lon="-0.13485">
        <ele>16</ele>
        <time>2016-02-07T09:51:23Z</time>
      </trkpt>
      <trkpt lat="44.732" lon="-0.13497">
        <ele>16</ele>
        <time>2016-02-07T09:51:32Z</time>
      </trkpt>
      <trkpt lat="44.73202" lon="-0.13508">
        <ele>17</ele>
        <time>2016-02-07T09:51:41Z</time>
      </trkpt>
      <trkpt lat="44.73202" lon="-0.1352">
        <ele>17</ele>
        <time>2016-02-07T09:51:49Z</time>
      </trkpt>
      <trkpt lat="44.73203" lon="-0.13532">
        <ele>17</ele>
        <time>2016-02-07T09:51:56Z</time>
      </trkpt>
      <trkpt lat="44.73203" lon="-0.13544">
        <ele>17</ele>
        <time>2016-02-07T09:52:03Z</time>
      </trkpt>
      <trkpt lat="44.73203" lon="-0.13556">
        <ele>16</ele>
        <time>2016-02-07T09:52:11Z</time>
      </trkpt>
      <trkpt lat="44.73202" lon="-0.13568">
        <ele>15</ele>
        <time>2016-02-07T09:52:18Z</time>
      </trkpt>
      <trkpt lat="44.732" lon="-0.13579">
        <ele>14</ele>
        <time>2016-02-07T09:52:27Z</time>
      </trkpt>
      <trkpt lat="44.73196" lon="-0.13589">
        <ele>14</ele>
        <time>2016-02-07T09:52:36Z</time>
      </trkpt>
      <trkpt lat="44.73191" lon="-0.13599">
        <ele>15</ele>
        <time>2016-02-07T09:52:44Z</time>
      </trkpt>
      <trkpt lat="44.73185" lon="-0.13608">
        <ele>15</ele>
        <time>2016-02-07T09:52:53Z</time>
      </trkpt>
      <trkpt lat="44.7318" lon="-0.13617">
        <ele>16</ele>
        <time>2016-02-07T09:53:02Z</time>
      </trkpt>
      <trkpt lat="44.73175" lon="-0.13625">
        <ele>17</ele>
        <time>2016-02-07T09:53:08Z</time>
      </trkpt>
      <trkpt lat="44.73171" lon="-0.13635">
        <ele>17</ele>
        <time>2016-02-07T09:53:14Z</time>
      </trkpt>
      <trkpt lat="44.73167" lon="-0.13645">
        <ele>19</ele>
        <time>2016-02-07T09:53:20Z</time>
      </trkpt>
      <trkpt lat="44.73162" lon="-0.13655">
        <ele>20</ele>
        <time>2016-02-07T09:53:28Z</time>
      </trkpt>
      <trkpt lat="44.73155" lon="-0.13663">
        <ele>23</ele>
        <time>2016-02-07T09:53:50Z</time>
      </trkpt>
      <trkpt lat="44.73152" lon="-0.13675">
        <ele>18</ele>
        <time>2016-02-07T09:56:55Z</time>
      </trkpt>
      <trkpt lat="44.73148" lon="-0.13686">
        <ele>18</ele>
        <time>2016-02-07T09:57:06Z</time>
      </trkpt>
      <trkpt lat="44.73143" lon="-0.13696">
        <ele>17</ele>
        <time>2016-02-07T09:57:16Z</time>
      </trkpt>
      <trkpt lat="44.7314" lon="-0.13708">
        <ele>17</ele>
        <time>2016-02-07T09:57:26Z</time>
      </trkpt>
      <trkpt lat="44.73138" lon="-0.1372">
        <ele>17</ele>
        <time>2016-02-07T09:57:35Z</time>
      </trkpt>
      <trkpt lat="44.73139" lon="-0.13731">
        <ele>16</ele>
        <time>2016-02-07T09:57:44Z</time>
      </trkpt>
      <trkpt lat="44.73139" lon="-0.13744">
        <ele>17</ele>
        <time>2016-02-07T09:57:52Z</time>
      </trkpt>
      <trkpt lat="44.73141" lon="-0.13756">
        <ele>17</ele>
        <time>2016-02-07T09:58:00Z</time>
      </trkpt>
      <trkpt lat="44.73142" lon="-0.13768">
        <ele>17</ele>
        <time>2016-02-07T09:58:09Z</time>
      </trkpt>
      <trkpt lat="44.73143" lon="-0.1378">
        <ele>15</ele>
        <time>2016-02-07T09:58:17Z</time>
      </trkpt>
      <trkpt lat="44.73144" lon="-0.13791">
        <ele>14</ele>
        <time>2016-02-07T09:58:25Z</time>
      </trkpt>
      <trkpt lat="44.73144" lon="-0.13804">
        <ele>14</ele>
        <time>2016-02-07T09:58:32Z</time>
      </trkpt>
      <trkpt lat="44.73142" lon="-0.13814">
        <ele>17</ele>
        <time>2016-02-07T09:58:39Z</time>
      </trkpt>
      <trkpt lat="44.73138" lon="-0.13826">
        <ele>19</ele>
        <time>2016-02-07T09:58:45Z</time>
      </trkpt>
      <trkpt lat="44.73132" lon="-0.13835">
        <ele>22</ele>
        <time>2016-02-07T09:58:51Z</time>
      </trkpt>
      <trkpt lat="44.73127" lon="-0.13844">
        <ele>22</ele>
        <time>2016-02-07T09:58:58Z</time>
      </trkpt>
      <trkpt lat="44.73121" lon="-0.13852">
        <ele>22</ele>
        <time>2016-02-07T09:59:05Z</time>
      </trkpt>
      <trkpt lat="44.73117" lon="-0.1386">
        <ele>22</ele>
        <time>2016-02-07T09:59:11Z</time>
      </trkpt>
      <trkpt lat="44.73112" lon="-0.13869">
        <ele>21</ele>
        <time>2016-02-07T09:59:19Z</time>
      </trkpt>
      <trkpt lat="44.73106" lon="-0.13877">
        <ele>21</ele>
        <time>2016-02-07T09:59:27Z</time>
      </trkpt>
      <trkpt lat="44.731" lon="-0.13885">
        <ele>18</ele>
        <time>2016-02-07T09:59:37Z</time>
      </trkpt>
      <trkpt lat="44.73094" lon="-0.13895">
        <ele>17</ele>
        <time>2016-02-07T09:59:46Z</time>
      </trkpt>
      <trkpt lat="44.73089" lon="-0.13904">
        <ele>17</ele>
        <time>2016-02-07T09:59:54Z</time>
      </trkpt>
      <trkpt lat="44.73084" lon="-0.13914">
        <ele>16</ele>
        <time>2016-02-07T10:00:02Z</time>
      </trkpt>
      <trkpt lat="44.7308" lon="-0.13925">
        <ele>15</ele>
        <time>2016-02-07T10:00:10Z</time>
      </trkpt>
      <trkpt lat="44.73077" lon="-0.13937">
        <ele>14</ele>
        <time>2016-02-07T10:00:18Z</time>
      </trkpt>
      <trkpt lat="44.73076" lon="-0.13948">
        <ele>14</ele>
        <time>2016-02-07T10:00:25Z</time>
      </trkpt>
      <trkpt lat="44.73075" lon="-0.1396">
        <ele>15</ele>
        <time>2016-02-07T10:00:32Z</time>
      </trkpt>
      <trkpt lat="44.73073" lon="-0.13971">
        <ele>16</ele>
        <time>2016-02-07T10:00:41Z</time>
      </trkpt>
      <trkpt lat="44.73071" lon="-0.13982">
        <ele>17</ele>
        <time>2016-02-07T10:00:49Z</time>
      </trkpt>
      <trkpt lat="44.73068" lon="-0.13994">
        <ele>15</ele>
        <time>2016-02-07T10:00:58Z</time>
      </trkpt>
      <trkpt lat="44.73065" lon="-0.14005">
        <ele>15</ele>
        <time>2016-02-07T10:01:06Z</time>
      </trkpt>
      <trkpt lat="44.73062" lon="-0.14016">
        <ele>14</ele>
        <time>2016-02-07T10:01:13Z</time>
      </trkpt>
      <trkpt lat="44.7306" lon="-0.14028">
        <ele>13</ele>
        <time>2016-02-07T10:01:21Z</time>
      </trkpt>
      <trkpt lat="44.73057" lon="-0.14039">
        <ele>13</ele>
        <time>2016-02-07T10:01:28Z</time>
      </trkpt>
      <trkpt lat="44.73054" lon="-0.1405">
        <ele>13</ele>
        <time>2016-02-07T10:01:34Z</time>
      </trkpt>
      <trkpt lat="44.73052" lon="-0.14062">
        <ele>15</ele>
        <time>2016-02-07T10:01:41Z</time>
      </trkpt>
      <trkpt lat="44.7305" lon="-0.14074">
        <ele>15</ele>
        <time>2016-02-07T10:01:49Z</time>
      </trkpt>
      <trkpt lat="44.73047" lon="-0.14085">
        <ele>16</ele>
        <time>2016-02-07T10:01:57Z</time>
      </trkpt>
      <trkpt lat="44.73044" lon="-0.14096">
        <ele>18</ele>
        <time>2016-02-07T10:02:04Z</time>
      </trkpt>
      <trkpt lat="44.73042" lon="-0.14108">
        <ele>19</ele>
        <time>2016-02-07T10:02:11Z</time>
      </trkpt>
      <trkpt lat="44.7304" lon="-0.1412">
        <ele>18</ele>
        <time>2016-02-07T10:02:17Z</time>
      </trkpt>
      <trkpt lat="44.73037" lon="-0.14131">
        <ele>18</ele>
        <time>2016-02-07T10:02:24Z</time>
      </trkpt>
      <trkpt lat="44.73034" lon="-0.14143">
        <ele>18</ele>
        <time>2016-02-07T10:02:31Z</time>
      </trkpt>
      <trkpt lat="44.73031" lon="-0.14153">
        <ele>18</ele>
        <time>2016-02-07T10:02:37Z</time>
      </trkpt>
      <trkpt lat="44.7303" lon="-0.14165">
        <ele>18</ele>
        <time>2016-02-07T10:02:44Z</time>
      </trkpt>
      <trkpt lat="44.73029" lon="-0.14177">
        <ele>18</ele>
        <time>2016-02-07T10:02:51Z</time>
      </trkpt>
      <trkpt lat="44.73026" lon="-0.14189">
        <ele>19</ele>
        <time>2016-02-07T10:02:58Z</time>
      </trkpt>
      <trkpt lat="44.73026" lon="-0.142">
        <ele>18</ele>
        <time>2016-02-07T10:03:05Z</time>
      </trkpt>
      <trkpt lat="44.73026" lon="-0.14211">
        <ele>19</ele>
        <time>2016-02-07T10:03:11Z</time>
      </trkpt>
      <trkpt lat="44.73027" lon="-0.14223">
        <ele>17</ele>
        <time>2016-02-07T10:03:17Z</time>
      </trkpt>
      <trkpt lat="44.73029" lon="-0.14234">
        <ele>17</ele>
        <time>2016-02-07T10:03:24Z</time>
      </trkpt>
      <trkpt lat="44.73036" lon="-0.14242">
        <ele>16</ele>
        <time>2016-02-07T10:03:31Z</time>
      </trkpt>
      <trkpt lat="44.73044" lon="-0.14245">
        <ele>16</ele>
        <time>2016-02-07T10:03:38Z</time>
      </trkpt>
      <trkpt lat="44.73053" lon="-0.14245">
        <ele>17</ele>
        <time>2016-02-07T10:03:44Z</time>
      </trkpt>
      <trkpt lat="44.73062" lon="-0.14246">
        <ele>18</ele>
        <time>2016-02-07T10:03:52Z</time>
      </trkpt>
      <trkpt lat="44.7307" lon="-0.1425">
        <ele>19</ele>
        <time>2016-02-07T10:04:00Z</time>
      </trkpt>
      <trkpt lat="44.73076" lon="-0.14258">
        <ele>19</ele>
        <time>2016-02-07T10:04:08Z</time>
      </trkpt>
      <trkpt lat="44.73082" lon="-0.14267">
        <ele>18</ele>
        <time>2016-02-07T10:04:17Z</time>
      </trkpt>
      <trkpt lat="44.73083" lon="-0.14277">
        <ele>18</ele>
        <time>2016-02-07T10:04:24Z</time>
      </trkpt>
      <trkpt lat="44.73083" lon="-0.1429">
        <ele>17</ele>
        <time>2016-02-07T10:04:31Z</time>
      </trkpt>
      <trkpt lat="44.73084" lon="-0.14302">
        <ele>16</ele>
        <time>2016-02-07T10:04:39Z</time>
      </trkpt>
      <trkpt lat="44.73085" lon="-0.14313">
        <ele>17</ele>
        <time>2016-02-07T10:04:48Z</time>
      </trkpt>
      <trkpt lat="44.73085" lon="-0.14325">
        <ele>19</ele>
        <time>2016-02-07T10:04:56Z</time>
      </trkpt>
      <trkpt lat="44.73084" lon="-0.14337">
        <ele>20</ele>
        <time>2016-02-07T10:05:03Z</time>
      </trkpt>
      <trkpt lat="44.73082" lon="-0.14349">
        <ele>20</ele>
        <time>2016-02-07T10:05:13Z</time>
      </trkpt>
      <trkpt lat="44.73081" lon="-0.14362">
        <ele>18</ele>
        <time>2016-02-07T10:05:23Z</time>
      </trkpt>
      <trkpt lat="44.73081" lon="-0.14373">
        <ele>18</ele>
        <time>2016-02-07T10:05:32Z</time>
      </trkpt>
      <trkpt lat="44.73082" lon="-0.14385">
        <ele>17</ele>
        <time>2016-02-07T10:05:41Z</time>
      </trkpt>
      <trkpt lat="44.73088" lon="-0.14393">
        <ele>17</ele>
        <time>2016-02-07T10:05:48Z</time>
      </trkpt>
      <trkpt lat="44.73095" lon="-0.14399">
        <ele>16</ele>
        <time>2016-02-07T10:06:00Z</time>
      </trkpt>
      <trkpt lat="44.73103" lon="-0.14404">
        <ele>13</ele>
        <time>2016-02-07T10:06:09Z</time>
      </trkpt>
      <trkpt lat="44.73111" lon="-0.1441">
        <ele>12</ele>
        <time>2016-02-07T10:06:18Z</time>
      </trkpt>
      <trkpt lat="44.73118" lon="-0.14415">
        <ele>7</ele>
        <time>2016-02-07T10:06:27Z</time>
      </trkpt>
      <trkpt lat="44.73125" lon="-0.14422">
        <ele>2</ele>
        <time>2016-02-07T10:06:36Z</time>
      </trkpt>
      <trkpt lat="44.73132" lon="-0.14427">
        <ele>-1</ele>
        <time>2016-02-07T10:06:43Z</time>
      </trkpt>
      <trkpt lat="44.7314" lon="-0.1443">
        <ele>-2</ele>
        <time>2016-02-07T10:06:50Z</time>
      </trkpt>
      <trkpt lat="44.73148" lon="-0.14436">
        <ele>-3</ele>
        <time>2016-02-07T10:06:58Z</time>
      </trkpt>
      <trkpt lat="44.73154" lon="-0.14441">
        <ele>-2</ele>
        <time>2016-02-07T10:07:05Z</time>
      </trkpt>
      <trkpt lat="44.73161" lon="-0.14446">
        <ele>-1</ele>
        <time>2016-02-07T10:07:11Z</time>
      </trkpt>
      <trkpt lat="44.73169" lon="-0.14448">
        <ele>71.6</ele>
        <time>2016-02-07T10:07:17Z</time>
      </trkpt>
      <trkpt lat="44.73176" lon="-0.14455">
        <ele>1</ele>
        <time>2016-02-07T10:07:26Z</time>
      </trkpt>
      <trkpt lat="44.73183" lon="-0.14461">
        <ele>69.7</ele>
        <time>2016-02-07T10:07:33Z</time>
      </trkpt>
      <trkpt lat="44.7319" lon="-0.14466">
        <ele>68.7</ele>
        <time>2016-02-07T10:07:40Z</time>
      </trkpt>
      <trkpt lat="44.73197" lon="-0.14473">
        <ele>2</ele>
        <time>2016-02-07T10:07:47Z</time>
      </trkpt>
      <trkpt lat="44.73204" lon="-0.14479">
        <ele>1</ele>
        <time>2016-02-07T10:07:56Z</time>
      </trkpt>
      <trkpt lat="44.73211" lon="-0.14486">
        <ele>1</ele>
        <time>2016-02-07T10:08:03Z</time>
      </trkpt>
      <trkpt lat="44.73219" lon="-0.1449">
        <ele>2</ele>
        <time>2016-02-07T10:08:10Z</time>
      </trkpt>
      <trkpt lat="44.73227" lon="-0.14492">
        <ele>3</ele>
        <time>2016-02-07T10:08:15Z</time>
      </trkpt>
      <trkpt lat="44.73234" lon="-0.14497">
        <ele>2</ele>
        <time>2016-02-07T10:08:22Z</time>
      </trkpt>
      <trkpt lat="44.73242" lon="-0.14501">
        <ele>4</ele>
        <time>2016-02-07T10:08:29Z</time>
      </trkpt>
      <trkpt lat="44.7325" lon="-0.14505">
        <ele>3</ele>
        <time>2016-02-07T10:08:37Z</time>
      </trkpt>
      <trkpt lat="44.73257" lon="-0.14509">
        <ele>3</ele>
        <time>2016-02-07T10:08:44Z</time>
      </trkpt>
      <trkpt lat="44.73264" lon="-0.14516">
        <ele>6</ele>
        <time>2016-02-07T10:08:52Z</time>
      </trkpt>
      <trkpt lat="44.73272" lon="-0.14519">
        <ele>3</ele>
        <time>2016-02-07T10:09:00Z</time>
      </trkpt>
      <trkpt lat="44.7328" lon="-0.14524">
        <ele>2</ele>
        <time>2016-02-07T10:09:09Z</time>
      </trkpt>
      <trkpt lat="44.73289" lon="-0.14527">
        <ele>1</ele>
        <time>2016-02-07T10:09:17Z</time>
      </trkpt>
      <trkpt lat="44.73297" lon="-0.14529">
        <ele>2</ele>
        <time>2016-02-07T10:09:23Z</time>
      </trkpt>
      <trkpt lat="44.73304" lon="-0.14534">
        <ele>1</ele>
        <time>2016-02-07T10:09:33Z</time>
      </trkpt>
      <trkpt lat="44.73312" lon="-0.14536">
        <ele>3</ele>
        <time>2016-02-07T10:09:41Z</time>
      </trkpt>
      <trkpt lat="44.7332" lon="-0.1454">
        <ele>3</ele>
        <time>2016-02-07T10:09:47Z</time>
      </trkpt>
      <trkpt lat="44.73328" lon="-0.14544">
        <ele>64.3</ele>
        <time>2016-02-07T10:09:55Z</time>
      </trkpt>
      <trkpt lat="44.73336" lon="-0.14546">
        <ele>-3</ele>
        <time>2016-02-07T10:10:02Z</time>
      </trkpt>
      <trkpt lat="44.73345" lon="-0.14549">
        <ele>-8</ele>
        <time>2016-02-07T10:10:10Z</time>
      </trkpt>
      <trkpt lat="44.73352" lon="-0.14552">
        <ele>-11</ele>
        <time>2016-02-07T10:10:16Z</time>
      </trkpt>
      <trkpt lat="44.7336" lon="-0.14554">
        <ele>-11</ele>
        <time>2016-02-07T10:10:21Z</time>
      </trkpt>
      <trkpt lat="44.73369" lon="-0.14554">
        <ele>-7</ele>
        <time>2016-02-07T10:10:25Z</time>
      </trkpt>
      <trkpt lat="44.73378" lon="-0.14557">
        <ele>-4</ele>
        <time>2016-02-07T10:10:30Z</time>
      </trkpt>
      <trkpt lat="44.73386" lon="-0.14561">
        <ele>-3</ele>
        <time>2016-02-07T10:10:36Z</time>
      </trkpt>
      <trkpt lat="44.73394" lon="-0.14564">
        <ele>-4</ele>
        <time>2016-02-07T10:10:42Z</time>
      </trkpt>
      <trkpt lat="44.73403" lon="-0.14566">
        <ele>-4</ele>
        <time>2016-02-07T10:10:48Z</time>
      </trkpt>
      <trkpt lat="44.73411" lon="-0.1457">
        <ele>-3</ele>
        <time>2016-02-07T10:10:54Z</time>
      </trkpt>
      <trkpt lat="44.73418" lon="-0.14574">
        <ele>62.6</ele>
        <time>2016-02-07T10:11:01Z</time>
      </trkpt>
      <trkpt lat="44.73426" lon="-0.14577">
        <ele>62.1</ele>
        <time>2016-02-07T10:11:08Z</time>
      </trkpt>
      <trkpt lat="44.73435" lon="-0.1458">
        <ele>61.6</ele>
        <time>2016-02-07T10:11:18Z</time>
      </trkpt>
      <trkpt lat="44.73443" lon="-0.14577">
        <ele>-4</ele>
        <time>2016-02-07T10:11:25Z</time>
      </trkpt>
      <trkpt lat="44.7345" lon="-0.1458">
        <ele>-8</ele>
        <time>2016-02-07T10:11:32Z</time>
      </trkpt>
      <trkpt lat="44.73459" lon="-0.14583">
        <ele>-9</ele>
        <time>2016-02-07T10:11:39Z</time>
      </trkpt>
      <trkpt lat="44.73466" lon="-0.14589">
        <ele>-12</ele>
        <time>2016-02-07T10:11:46Z</time>
      </trkpt>
      <trkpt lat="44.73472" lon="-0.14595">
        <ele>-12</ele>
        <time>2016-02-07T10:11:51Z</time>
      </trkpt>
      <trkpt lat="44.73477" lon="-0.14606">
        <ele>-13</ele>
        <time>2016-02-07T10:11:57Z</time>
      </trkpt>
      <trkpt lat="44.73481" lon="-0.14616">
        <ele>-16</ele>
        <time>2016-02-07T10:12:06Z</time>
      </trkpt>
      <trkpt lat="44.73487" lon="-0.14625">
        <ele>-15</ele>
        <time>2016-02-07T10:12:14Z</time>
      </trkpt>
      <trkpt lat="44.7349" lon="-0.14636">
        <ele>-16</ele>
        <time>2016-02-07T10:12:23Z</time>
      </trkpt>
      <trkpt lat="44.73493" lon="-0.14646">
        <ele>-16</ele>
        <time>2016-02-07T10:12:29Z</time>
      </trkpt>
      <trkpt lat="44.73498" lon="-0.14657">
        <ele>-16</ele>
        <time>2016-02-07T10:12:37Z</time>
      </trkpt>
      <trkpt lat="44.73503" lon="-0.14663">
        <ele>-20</ele>
        <time>2016-02-07T10:12:48Z</time>
      </trkpt>
      <trkpt lat="44.73505" lon="-0.14679">
        <ele>-16</ele>
        <time>2016-02-07T10:12:53Z</time>
      </trkpt>
      <trkpt lat="44.73508" lon="-0.14691">
        <ele>-15</ele>
        <time>2016-02-07T10:12:58Z</time>
      </trkpt>
      <trkpt lat="44.73511" lon="-0.14702">
        <ele>-14</ele>
        <time>2016-02-07T10:13:04Z</time>
      </trkpt>
      <trkpt lat="44.73515" lon="-0.14713">
        <ele>-12</ele>
        <time>2016-02-07T10:13:13Z</time>
      </trkpt>
      <trkpt lat="44.73515" lon="-0.14724">
        <ele>-8</ele>
        <time>2016-02-07T10:13:20Z</time>
      </trkpt>
      <trkpt lat="44.73519" lon="-0.14735">
        <ele>-9</ele>
        <time>2016-02-07T10:13:30Z</time>
      </trkpt>
      <trkpt lat="44.73522" lon="-0.14746">
        <ele>-8</ele>
        <time>2016-02-07T10:13:35Z</time>
      </trkpt>
      <trkpt lat="44.73525" lon="-0.14757">
        <ele>-6</ele>
        <time>2016-02-07T10:13:42Z</time>
      </trkpt>
      <trkpt lat="44.7353" lon="-0.14766">
        <ele>-8</ele>
        <time>2016-02-07T10:13:54Z</time>
      </trkpt>
      <trkpt lat="44.73533" lon="-0.14777">
        <ele>-12</ele>
        <time>2016-02-07T10:14:07Z</time>
      </trkpt>
      <trkpt lat="44.73533" lon="-0.14779">
        <ele>-12</ele>
        <time>2016-02-07T10:15:11Z</time>
      </trkpt>
      <trkpt lat="44.73535" lon="-0.14793">
        <ele>-18</ele>
        <time>2016-02-07T10:15:15Z</time>
      </trkpt>
      <trkpt lat="44.73535" lon="-0.14793">
        <ele>-18</ele>
        <time>2016-02-07T10:18:08Z</time>
      </trkpt>
      <trkpt lat="44.73544" lon="-0.14788">
        <ele>-5</ele>
        <time>2016-02-07T10:18:12Z</time>
      </trkpt>
      <trkpt lat="44.73538" lon="-0.1478">
        <ele>-4</ele>
        <time>2016-02-07T10:18:40Z</time>
      </trkpt>
      <trkpt lat="44.73534" lon="-0.1477">
        <ele>-5</ele>
        <time>2016-02-07T10:18:50Z</time>
      </trkpt>
      <trkpt lat="44.7353" lon="-0.14761">
        <ele>-6</ele>
        <time>2016-02-07T10:18:57Z</time>
      </trkpt>
      <trkpt lat="44.73524" lon="-0.14752">
        <ele>-5</ele>
        <time>2016-02-07T10:19:04Z</time>
      </trkpt>
      <trkpt lat="44.73518" lon="-0.14742">
        <ele>-7</ele>
        <time>2016-02-07T10:19:15Z</time>
      </trkpt>
      <trkpt lat="44.73514" lon="-0.14732">
        <ele>-4</ele>
        <time>2016-02-07T10:19:23Z</time>
      </trkpt>
      <trkpt lat="44.73519" lon="-0.14722">
        <ele>-3</ele>
        <time>2016-02-07T10:19:44Z</time>
      </trkpt>
      <trkpt lat="44.73526" lon="-0.1473">
        <ele>52</ele>
        <time>2016-02-07T10:19:58Z</time>
      </trkpt>
      <trkpt lat="44.73535" lon="-0.14727">
        <ele>-5</ele>
        <time>2016-02-07T10:20:06Z</time>
      </trkpt>
      <trkpt lat="44.73544" lon="-0.14726">
        <ele>-8</ele>
        <time>2016-02-07T10:20:16Z</time>
      </trkpt>
      <trkpt lat="44.73552" lon="-0.14726">
        <ele>-8</ele>
        <time>2016-02-07T10:20:27Z</time>
      </trkpt>
      <trkpt lat="44.73561" lon="-0.14726">
        <ele>-7</ele>
        <time>2016-02-07T10:20:34Z</time>
      </trkpt>
      <trkpt lat="44.73569" lon="-0.14726">
        <ele>-5</ele>
        <time>2016-02-07T10:20:40Z</time>
      </trkpt>
      <trkpt lat="44.73577" lon="-0.14724">
        <ele>-6</ele>
        <time>2016-02-07T10:20:46Z</time>
      </trkpt>
      <trkpt lat="44.73585" lon="-0.14724">
        <ele>-6</ele>
        <time>2016-02-07T10:20:52Z</time>
      </trkpt>
      <trkpt lat="44.73594" lon="-0.14727">
        <ele>-3</ele>
        <time>2016-02-07T10:20:59Z</time>
      </trkpt>
      <trkpt lat="44.73602" lon="-0.14729">
        <ele>-3</ele>
        <time>2016-02-07T10:21:07Z</time>
      </trkpt>
      <trkpt lat="44.7361" lon="-0.14729">
        <ele>-1</ele>
        <time>2016-02-07T10:21:15Z</time>
      </trkpt>
      <trkpt lat="44.73619" lon="-0.14731">
        <ele>58.4</ele>
        <time>2016-02-07T10:21:23Z</time>
      </trkpt>
      <trkpt lat="44.73627" lon="-0.14732">
        <ele>58.5</ele>
        <time>2016-02-07T10:21:32Z</time>
      </trkpt>
      <trkpt lat="44.73635" lon="-0.14734">
        <ele>-2</ele>
        <time>2016-02-07T10:21:40Z</time>
      </trkpt>
      <trkpt lat="44.73643" lon="-0.14735">
        <ele>-5</ele>
        <time>2016-02-07T10:21:48Z</time>
      </trkpt>
      <trkpt lat="44.73651" lon="-0.14734">
        <ele>-4</ele>
        <time>2016-02-07T10:21:55Z</time>
      </trkpt>
      <trkpt lat="44.7366" lon="-0.14734">
        <ele>59.3</ele>
        <time>2016-02-07T10:22:02Z</time>
      </trkpt>
      <trkpt lat="44.73668" lon="-0.14732">
        <ele>59.4</ele>
        <time>2016-02-07T10:22:09Z</time>
      </trkpt>
      <trkpt lat="44.73676" lon="-0.14736">
        <ele>2</ele>
        <time>2016-02-07T10:22:19Z</time>
      </trkpt>
      <trkpt lat="44.73685" lon="-0.14738">
        <ele>3</ele>
        <time>2016-02-07T10:22:28Z</time>
      </trkpt>
      <trkpt lat="44.73693" lon="-0.14738">
        <ele>1</ele>
        <time>2016-02-07T10:22:35Z</time>
      </trkpt>
      <trkpt lat="44.73701" lon="-0.1474">
        <ele>60.8</ele>
        <time>2016-02-07T10:22:43Z</time>
      </trkpt>
      <trkpt lat="44.7371" lon="-0.14743">
        <ele>61.2</ele>
        <time>2016-02-07T10:22:51Z</time>
      </trkpt>
      <trkpt lat="44.73718" lon="-0.14745">
        <ele>61.7</ele>
        <time>2016-02-07T10:22:59Z</time>
      </trkpt>
      <trkpt lat="44.73726" lon="-0.1475">
        <ele>2</ele>
        <time>2016-02-07T10:23:08Z</time>
      </trkpt>
      <trkpt lat="44.73733" lon="-0.14755">
        <ele>3</ele>
        <time>2016-02-07T10:23:16Z</time>
      </trkpt>
      <trkpt lat="44.7374" lon="-0.1476">
        <ele>4</ele>
        <time>2016-02-07T10:23:21Z</time>
      </trkpt>
      <trkpt lat="44.73745" lon="-0.14769">
        <ele>6</ele>
        <time>2016-02-07T10:23:27Z</time>
      </trkpt>
      <trkpt lat="44.73747" lon="-0.1478">
        <ele>7</ele>
        <time>2016-02-07T10:23:34Z</time>
      </trkpt>
      <trkpt lat="44.73747" lon="-0.14792">
        <ele>6</ele>
        <time>2016-02-07T10:23:41Z</time>
      </trkpt>
      <trkpt lat="44.73745" lon="-0.14804">
        <ele>6</ele>
        <time>2016-02-07T10:23:47Z</time>
      </trkpt>
      <trkpt lat="44.73745" lon="-0.14816">
        <ele>8</ele>
        <time>2016-02-07T10:23:53Z</time>
      </trkpt>
      <trkpt lat="44.73749" lon="-0.14826">
        <ele>8</ele>
        <time>2016-02-07T10:24:02Z</time>
      </trkpt>
      <trkpt lat="44.7375" lon="-0.14838">
        <ele>9</ele>
        <time>2016-02-07T10:24:10Z</time>
      </trkpt>
      <trkpt lat="44.73749" lon="-0.1485">
        <ele>9</ele>
        <time>2016-02-07T10:24:18Z</time>
      </trkpt>
      <trkpt lat="44.7375" lon="-0.14862">
        <ele>8</ele>
        <time>2016-02-07T10:24:26Z</time>
      </trkpt>
      <trkpt lat="44.73749" lon="-0.14874">
        <ele>10</ele>
        <time>2016-02-07T10:24:32Z</time>
      </trkpt>
      <trkpt lat="44.73747" lon="-0.14885">
        <ele>11</ele>
        <time>2016-02-07T10:24:38Z</time>
      </trkpt>
      <trkpt lat="44.73746" lon="-0.14896">
        <ele>11</ele>
        <time>2016-02-07T10:24:45Z</time>
      </trkpt>
      <trkpt lat="44.73749" lon="-0.14908">
        <ele>9</ele>
        <time>2016-02-07T10:24:55Z</time>
      </trkpt>
      <trkpt lat="44.73749" lon="-0.1492">
        <ele>8</ele>
        <time>2016-02-07T10:25:02Z</time>
      </trkpt>
      <trkpt lat="44.73749" lon="-0.14931">
        <ele>7</ele>
        <time>2016-02-07T10:25:10Z</time>
      </trkpt>
      <trkpt lat="44.7375" lon="-0.14943">
        <ele>4</ele>
        <time>2016-02-07T10:25:18Z</time>
      </trkpt>
      <trkpt lat="44.73751" lon="-0.14954">
        <ele>3</ele>
        <time>2016-02-07T10:25:26Z</time>
      </trkpt>
      <trkpt lat="44.73751" lon="-0.14966">
        <ele>2</ele>
        <time>2016-02-07T10:25:34Z</time>
      </trkpt>
      <trkpt lat="44.73751" lon="-0.14978">
        <ele>3</ele>
        <time>2016-02-07T10:25:40Z</time>
      </trkpt>
      <trkpt lat="44.7375" lon="-0.14991">
        <ele>3</ele>
        <time>2016-02-07T10:25:46Z</time>
      </trkpt>
      <trkpt lat="44.73749" lon="-0.15003">
        <ele>4</ele>
        <time>2016-02-07T10:25:53Z</time>
      </trkpt>
      <trkpt lat="44.73749" lon="-0.15015">
        <ele>4</ele>
        <time>2016-02-07T10:26:00Z</time>
      </trkpt>
      <trkpt lat="44.73747" lon="-0.15026">
        <ele>5</ele>
        <time>2016-02-07T10:26:06Z</time>
      </trkpt>
      <trkpt lat="44.73746" lon="-0.15038">
        <ele>5</ele>
        <time>2016-02-07T10:26:12Z</time>
      </trkpt>
      <trkpt lat="44.73746" lon="-0.1505">
        <ele>5</ele>
        <time>2016-02-07T10:26:19Z</time>
      </trkpt>
      <trkpt lat="44.73747" lon="-0.15061">
        <ele>4</ele>
        <time>2016-02-07T10:26:28Z</time>
      </trkpt>
      <trkpt lat="44.73748" lon="-0.15073">
        <ele>4</ele>
        <time>2016-02-07T10:26:38Z</time>
      </trkpt>
      <trkpt lat="44.73749" lon="-0.15085">
        <ele>7</ele>
        <time>2016-02-07T10:26:46Z</time>
      </trkpt>
      <trkpt lat="44.73746" lon="-0.15098">
        <ele>10</ele>
        <time>2016-02-07T10:26:51Z</time>
      </trkpt>
      <trkpt lat="44.73739" lon="-0.15104">
        <ele>11</ele>
        <time>2016-02-07T10:26:58Z</time>
      </trkpt>
      <trkpt lat="44.73731" lon="-0.15102">
        <ele>10</ele>
        <time>2016-02-07T10:27:06Z</time>
      </trkpt>
      <trkpt lat="44.73723" lon="-0.15101">
        <ele>11</ele>
        <time>2016-02-07T10:27:13Z</time>
      </trkpt>
      <trkpt lat="44.73714" lon="-0.151">
        <ele>10</ele>
        <time>2016-02-07T10:27:20Z</time>
      </trkpt>
      <trkpt lat="44.73706" lon="-0.15098">
        <ele>9</ele>
        <time>2016-02-07T10:27:27Z</time>
      </trkpt>
      <trkpt lat="44.73698" lon="-0.15096">
        <ele>9</ele>
        <time>2016-02-07T10:27:34Z</time>
      </trkpt>
      <trkpt lat="44.7369" lon="-0.15094">
        <ele>8</ele>
        <time>2016-02-07T10:27:41Z</time>
      </trkpt>
      <trkpt lat="44.73681" lon="-0.15092">
        <ele>7</ele>
        <time>2016-02-07T10:27:50Z</time>
      </trkpt>
      <trkpt lat="44.73673" lon="-0.15091">
        <ele>6</ele>
        <time>2016-02-07T10:27:58Z</time>
      </trkpt>
      <trkpt lat="44.73664" lon="-0.15089">
        <ele>6</ele>
        <time>2016-02-07T10:28:06Z</time>
      </trkpt>
      <trkpt lat="44.73656" lon="-0.15089">
        <ele>6</ele>
        <time>2016-02-07T10:28:12Z</time>
      </trkpt>
      <trkpt lat="44.73648" lon="-0.15086">
        <ele>2</ele>
        <time>2016-02-07T10:28:20Z</time>
      </trkpt>
      <trkpt lat="44.7364" lon="-0.15085">
        <ele>61</ele>
        <time>2016-02-07T10:28:32Z</time>
      </trkpt>
      <trkpt lat="44.73631" lon="-0.15083">
        <ele>-1</ele>
        <time>2016-02-07T10:28:41Z</time>
      </trkpt>
      <trkpt lat="44.73625" lon="-0.15081">
        <ele>-2</ele>
        <time>2016-02-07T10:28:48Z</time>
      </trkpt>
      <trkpt lat="44.73616" lon="-0.15078">
        <ele>-3</ele>
        <time>2016-02-07T10:28:53Z</time>
      </trkpt>
      <trkpt lat="44.73609" lon="-0.15077">
        <ele>-6</ele>
        <time>2016-02-07T10:29:01Z</time>
      </trkpt>
      <trkpt lat="44.73601" lon="-0.15079">
        <ele>-10</ele>
        <time>2016-02-07T10:29:08Z</time>
      </trkpt>
      <trkpt lat="44.73592" lon="-0.15084">
        <ele>-6</ele>
        <time>2016-02-07T10:29:13Z</time>
      </trkpt>
      <trkpt lat="44.73587" lon="-0.15093">
        <ele>-4</ele>
        <time>2016-02-07T10:29:21Z</time>
      </trkpt>
      <trkpt lat="44.73584" lon="-0.15104">
        <ele>-4</ele>
        <time>2016-02-07T10:29:28Z</time>
      </trkpt>
      <trkpt lat="44.73583" lon="-0.15115">
        <ele>-4</ele>
        <time>2016-02-07T10:29:35Z</time>
      </trkpt>
      <trkpt lat="44.73581" lon="-0.15127">
        <ele>-2</ele>
        <time>2016-02-07T10:29:40Z</time>
      </trkpt>
      <trkpt lat="44.73579" lon="-0.15139">
        <ele>58.8</ele>
        <time>2016-02-07T10:29:45Z</time>
      </trkpt>
      <trkpt lat="44.73577" lon="-0.15151">
        <ele>2</ele>
        <time>2016-02-07T10:29:52Z</time>
      </trkpt>
      <trkpt lat="44.73577" lon="-0.15161">
        <ele>3</ele>
        <time>2016-02-07T10:30:09Z</time>
      </trkpt>
      <trkpt lat="44.73577" lon="-0.15173">
        <ele>2</ele>
        <time>2016-02-07T10:30:13Z</time>
      </trkpt>
      <trkpt lat="44.73573" lon="-0.15184">
        <ele>4</ele>
        <time>2016-02-07T10:30:18Z</time>
      </trkpt>
      <trkpt lat="44.73565" lon="-0.15189">
        <ele>3</ele>
        <time>2016-02-07T10:30:25Z</time>
      </trkpt>
      <trkpt lat="44.73557" lon="-0.1519">
        <ele>3</ele>
        <time>2016-02-07T10:30:33Z</time>
      </trkpt>
      <trkpt lat="44.73549" lon="-0.15191">
        <ele>3</ele>
        <time>2016-02-07T10:30:39Z</time>
      </trkpt>
      <trkpt lat="44.73541" lon="-0.1519">
        <ele>3</ele>
        <time>2016-02-07T10:30:44Z</time>
      </trkpt>
      <trkpt lat="44.73533" lon="-0.15187">
        <ele>5</ele>
        <time>2016-02-07T10:30:51Z</time>
      </trkpt>
      <trkpt lat="44.73525" lon="-0.15185">
        <ele>4</ele>
        <time>2016-02-07T10:30:57Z</time>
      </trkpt>
      <trkpt lat="44.73517" lon="-0.15188">
        <ele>1</ele>
        <time>2016-02-07T10:31:03Z</time>
      </trkpt>
      <trkpt lat="44.73513" lon="-0.15198">
        <ele>-2</ele>
        <time>2016-02-07T10:31:13Z</time>
      </trkpt>
      <trkpt lat="44.73513" lon="-0.1521">
        <ele>-3</ele>
        <time>2016-02-07T10:31:22Z</time>
      </trkpt>
      <trkpt lat="44.73512" lon="-0.15222">
        <ele>-5</ele>
        <time>2016-02-07T10:31:31Z</time>
      </trkpt>
      <trkpt lat="44.73512" lon="-0.15233">
        <ele>-6</ele>
        <time>2016-02-07T10:31:38Z</time>
      </trkpt>
      <trkpt lat="44.73511" lon="-0.15243">
        <ele>-6</ele>
        <time>2016-02-07T10:31:44Z</time>
      </trkpt>
      <trkpt lat="44.7351" lon="-0.15255">
        <ele>-8</ele>
        <time>2016-02-07T10:31:51Z</time>
      </trkpt>
      <trkpt lat="44.7351" lon="-0.15267">
        <ele>-9</ele>
        <time>2016-02-07T10:31:58Z</time>
      </trkpt>
      <trkpt lat="44.73509" lon="-0.15279">
        <ele>-9</ele>
        <time>2016-02-07T10:32:06Z</time>
      </trkpt>
      <trkpt lat="44.73509" lon="-0.15291">
        <ele>-9</ele>
        <time>2016-02-07T10:32:14Z</time>
      </trkpt>
      <trkpt lat="44.73509" lon="-0.15303">
        <ele>-9</ele>
        <time>2016-02-07T10:32:20Z</time>
      </trkpt>
      <trkpt lat="44.73507" lon="-0.15314">
        <ele>-8</ele>
        <time>2016-02-07T10:32:25Z</time>
      </trkpt>
      <trkpt lat="44.73504" lon="-0.15326">
        <ele>-8</ele>
        <time>2016-02-07T10:32:30Z</time>
      </trkpt>
      <trkpt lat="44.73501" lon="-0.15337">
        <ele>-7</ele>
        <time>2016-02-07T10:32:36Z</time>
      </trkpt>
      <trkpt lat="44.73501" lon="-0.15349">
        <ele>-8</ele>
        <time>2016-02-07T10:32:43Z</time>
      </trkpt>
      <trkpt lat="44.73499" lon="-0.15361">
        <ele>-4</ele>
        <time>2016-02-07T10:32:49Z</time>
      </trkpt>
      <trkpt lat="44.73498" lon="-0.15373">
        <ele>-4</ele>
        <time>2016-02-07T10:32:57Z</time>
      </trkpt>
      <trkpt lat="44.73499" lon="-0.15384">
        <ele>-4</ele>
        <time>2016-02-07T10:33:05Z</time>
      </trkpt>
      <trkpt lat="44.73497" lon="-0.15396">
        <ele>-3</ele>
        <time>2016-02-07T10:33:12Z</time>
      </trkpt>
      <trkpt lat="44.735" lon="-0.15408">
        <ele>-1</ele>
        <time>2016-02-07T10:33:21Z</time>
      </trkpt>
      <trkpt lat="44.735" lon="-0.1542">
        <ele>-1</ele>
        <time>2016-02-07T10:33:30Z</time>
      </trkpt>
      <trkpt lat="44.73493" lon="-0.15426">
        <ele>52.6</ele>
        <time>2016-02-07T10:33:37Z</time>
      </trkpt>
      <trkpt lat="44.73485" lon="-0.15429">
        <ele>52.2</ele>
        <time>2016-02-07T10:33:46Z</time>
      </trkpt>
      <trkpt lat="44.73477" lon="-0.15431">
        <ele>2</ele>
        <time>2016-02-07T10:33:55Z</time>
      </trkpt>
      <trkpt lat="44.73469" lon="-0.15433">
        <ele>51.2</ele>
        <time>2016-02-07T10:34:03Z</time>
      </trkpt>
      <trkpt lat="44.73461" lon="-0.15438">
        <ele>-2</ele>
        <time>2016-02-07T10:34:11Z</time>
      </trkpt>
      <trkpt lat="44.73453" lon="-0.15443">
        <ele>-3</ele>
        <time>2016-02-07T10:34:18Z</time>
      </trkpt>
      <trkpt lat="44.73447" lon="-0.1545">
        <ele>-5</ele>
        <time>2016-02-07T10:34:26Z</time>
      </trkpt>
      <trkpt lat="44.73442" lon="-0.1546">
        <ele>-6</ele>
        <time>2016-02-07T10:34:33Z</time>
      </trkpt>
      <trkpt lat="44.73436" lon="-0.15468">
        <ele>-6</ele>
        <time>2016-02-07T10:34:43Z</time>
      </trkpt>
      <trkpt lat="44.73436" lon="-0.15479">
        <ele>-7</ele>
        <time>2016-02-07T10:34:49Z</time>
      </trkpt>
      <trkpt lat="44.73437" lon="-0.15491">
        <ele>-8</ele>
        <time>2016-02-07T10:34:55Z</time>
      </trkpt>
      <trkpt lat="44.73437" lon="-0.15502">
        <ele>-9</ele>
        <time>2016-02-07T10:35:02Z</time>
      </trkpt>
      <trkpt lat="44.73435" lon="-0.15514">
        <ele>-10</ele>
        <time>2016-02-07T10:35:09Z</time>
      </trkpt>
      <trkpt lat="44.73434" lon="-0.15524">
        <ele>-9</ele>
        <time>2016-02-07T10:35:16Z</time>
      </trkpt>
      <trkpt lat="44.73433" lon="-0.15536">
        <ele>-8</ele>
        <time>2016-02-07T10:35:24Z</time>
      </trkpt>
      <trkpt lat="44.7343" lon="-0.15548">
        <ele>-8</ele>
        <time>2016-02-07T10:35:32Z</time>
      </trkpt>
      <trkpt lat="44.73429" lon="-0.1556">
        <ele>-8</ele>
        <time>2016-02-07T10:35:45Z</time>
      </trkpt>
      <trkpt lat="44.73427" lon="-0.15571">
        <ele>-9</ele>
        <time>2016-02-07T10:35:50Z</time>
      </trkpt>
      <trkpt lat="44.73425" lon="-0.15583">
        <ele>-11</ele>
        <time>2016-02-07T10:35:57Z</time>
      </trkpt>
      <trkpt lat="44.73425" lon="-0.15595">
        <ele>-12</ele>
        <time>2016-02-07T10:36:06Z</time>
      </trkpt>
      <trkpt lat="44.73424" lon="-0.15606">
        <ele>-14</ele>
        <time>2016-02-07T10:36:16Z</time>
      </trkpt>
      <trkpt lat="44.73424" lon="-0.15619">
        <ele>-16</ele>
        <time>2016-02-07T10:36:24Z</time>
      </trkpt>
      <trkpt lat="44.73424" lon="-0.1563">
        <ele>-15</ele>
        <time>2016-02-07T10:36:30Z</time>
      </trkpt>
      <trkpt lat="44.73422" lon="-0.15641">
        <ele>-15</ele>
        <time>2016-02-07T10:36:35Z</time>
      </trkpt>
      <trkpt lat="44.73421" lon="-0.15653">
        <ele>-14</ele>
        <time>2016-02-07T10:36:42Z</time>
      </trkpt>
      <trkpt lat="44.73421" lon="-0.15665">
        <ele>-10</ele>
        <time>2016-02-07T10:36:50Z</time>
      </trkpt>
      <trkpt lat="44.73422" lon="-0.15678">
        <ele>-8</ele>
        <time>2016-02-07T10:36:59Z</time>
      </trkpt>
      <trkpt lat="44.73422" lon="-0.15689">
        <ele>-8</ele>
        <time>2016-02-07T10:37:05Z</time>
      </trkpt>
      <trkpt lat="44.73421" lon="-0.157">
        <ele>-10</ele>
        <time>2016-02-07T10:37:11Z</time>
      </trkpt>
      <trkpt lat="44.73419" lon="-0.15712">
        <ele>-12</ele>
        <time>2016-02-07T10:37:17Z</time>
      </trkpt>
      <trkpt lat="44.73417" lon="-0.15724">
        <ele>-11</ele>
        <time>2016-02-07T10:37:22Z</time>
      </trkpt>
      <trkpt lat="44.73416" lon="-0.15735">
        <ele>-13</ele>
        <time>2016-02-07T10:37:27Z</time>
      </trkpt>
      <trkpt lat="44.73416" lon="-0.15747">
        <ele>-14</ele>
        <time>2016-02-07T10:37:33Z</time>
      </trkpt>
      <trkpt lat="44.73416" lon="-0.1576">
        <ele>-11</ele>
        <time>2016-02-07T10:37:41Z</time>
      </trkpt>
      <trkpt lat="44.73417" lon="-0.15765">
        <ele>-9</ele>
        <time>2016-02-07T10:38:40Z</time>
      </trkpt>
      <trkpt lat="44.73418" lon="-0.1578">
        <ele>-5</ele>
        <time>2016-02-07T10:38:44Z</time>
      </trkpt>
      <trkpt lat="44.7342" lon="-0.15792">
        <ele>-7</ele>
        <time>2016-02-07T10:38:58Z</time>
      </trkpt>
      <trkpt lat="44.73418" lon="-0.15798">
        <ele>-5</ele>
        <time>2016-02-07T10:39:26Z</time>
      </trkpt>
      <trkpt lat="44.73418" lon="-0.15814">
        <ele>-19</ele>
        <time>2016-02-07T10:39:31Z</time>
      </trkpt>
      <trkpt lat="44.73419" lon="-0.15826">
        <ele>-20</ele>
        <time>2016-02-07T10:39:42Z</time>
      </trkpt>
      <trkpt lat="44.73418" lon="-0.15836">
        <ele>-16</ele>
        <time>2016-02-07T10:42:10Z</time>
      </trkpt>
      <trkpt lat="44.73423" lon="-0.15849">
        <ele>-31</ele>
        <time>2016-02-07T10:42:15Z</time>
      </trkpt>
      <trkpt lat="44.7342" lon="-0.1586">
        <ele>-24</ele>
        <time>2016-02-07T10:42:43Z</time>
      </trkpt>
      <trkpt lat="44.73422" lon="-0.15871">
        <ele>-20</ele>
        <time>2016-02-07T10:42:54Z</time>
      </trkpt>
      <trkpt lat="44.73414" lon="-0.15883">
        <ele>-12</ele>
        <time>2016-02-07T10:42:58Z</time>
      </trkpt>
      <trkpt lat="44.7341" lon="-0.15893">
        <ele>-4</ele>
        <time>2016-02-07T10:43:06Z</time>
      </trkpt>
      <trkpt lat="44.73409" lon="-0.15905">
        <ele>-4</ele>
        <time>2016-02-07T10:43:16Z</time>
      </trkpt>
      <trkpt lat="44.7341" lon="-0.15916">
        <ele>-6</ele>
        <time>2016-02-07T10:43:23Z</time>
      </trkpt>
      <trkpt lat="44.73408" lon="-0.15926">
        <ele>-6</ele>
        <time>2016-02-07T10:43:31Z</time>
      </trkpt>
      <trkpt lat="44.73403" lon="-0.15935">
        <ele>-8</ele>
        <time>2016-02-07T10:43:36Z</time>
      </trkpt>
      <trkpt lat="44.73401" lon="-0.15947">
        <ele>-12</ele>
        <time>2016-02-07T10:43:44Z</time>
      </trkpt>
      <trkpt lat="44.73403" lon="-0.15959">
        <ele>-21</ele>
        <time>2016-02-07T10:43:55Z</time>
      </trkpt>
      <trkpt lat="44.73402" lon="-0.1597">
        <ele>-22</ele>
        <time>2016-02-07T10:44:01Z</time>
      </trkpt>
      <trkpt lat="44.73399" lon="-0.15982">
        <ele>-23</ele>
        <time>2016-02-07T10:44:07Z</time>
      </trkpt>
      <trkpt lat="44.73397" lon="-0.15993">
        <ele>-24</ele>
        <time>2016-02-07T10:44:14Z</time>
      </trkpt>
      <trkpt lat="44.73392" lon="-0.16004">
        <ele>-22</ele>
        <time>2016-02-07T10:44:22Z</time>
      </trkpt>
      <trkpt lat="44.73387" lon="-0.16013">
        <ele>-18</ele>
        <time>2016-02-07T10:44:28Z</time>
      </trkpt>
      <trkpt lat="44.73382" lon="-0.16022">
        <ele>-16</ele>
        <time>2016-02-07T10:44:41Z</time>
      </trkpt>
      <trkpt lat="44.7338" lon="-0.16033">
        <ele>-16</ele>
        <time>2016-02-07T10:44:46Z</time>
      </trkpt>
      <trkpt lat="44.73379" lon="-0.16045">
        <ele>-15</ele>
        <time>2016-02-07T10:44:56Z</time>
      </trkpt>
      <trkpt lat="44.7338" lon="-0.16056">
        <ele>-20</ele>
        <time>2016-02-07T10:45:03Z</time>
      </trkpt>
      <trkpt lat="44.7338" lon="-0.16068">
        <ele>-18</ele>
        <time>2016-02-07T10:45:08Z</time>
      </trkpt>
      <trkpt lat="44.73379" lon="-0.16079">
        <ele>-17</ele>
        <time>2016-02-07T10:45:13Z</time>
      </trkpt>
      <trkpt lat="44.73383" lon="-0.16089">
        <ele>-17</ele>
        <time>2016-02-07T10:45:20Z</time>
      </trkpt>
      <trkpt lat="44.73385" lon="-0.16101">
        <ele>-16</ele>
        <time>2016-02-07T10:45:30Z</time>
      </trkpt>
      <trkpt lat="44.73385" lon="-0.16112">
        <ele>-14</ele>
        <time>2016-02-07T10:45:40Z</time>
      </trkpt>
      <trkpt lat="44.73386" lon="-0.16123">
        <ele>-17</ele>
        <time>2016-02-07T10:45:47Z</time>
      </trkpt>
      <trkpt lat="44.73386" lon="-0.16134">
        <ele>-16</ele>
        <time>2016-02-07T10:45:54Z</time>
      </trkpt>
      <trkpt lat="44.73388" lon="-0.16145">
        <ele>-17</ele>
        <time>2016-02-07T10:46:02Z</time>
      </trkpt>
      <trkpt lat="44.7339" lon="-0.16157">
        <ele>-17</ele>
        <time>2016-02-07T10:46:11Z</time>
      </trkpt>
      <trkpt lat="44.73391" lon="-0.16168">
        <ele>-17</ele>
        <time>2016-02-07T10:46:18Z</time>
      </trkpt>
      <trkpt lat="44.73392" lon="-0.16179">
        <ele>-15</ele>
        <time>2016-02-07T10:46:23Z</time>
      </trkpt>
      <trkpt lat="44.7339" lon="-0.1619">
        <ele>-12</ele>
        <time>2016-02-07T10:46:28Z</time>
      </trkpt>
      <trkpt lat="44.73389" lon="-0.16201">
        <ele>-10</ele>
        <time>2016-02-07T10:46:33Z</time>
      </trkpt>
      <trkpt lat="44.73385" lon="-0.16208">
        <ele>-13</ele>
        <time>2016-02-07T10:46:59Z</time>
      </trkpt>
      <trkpt lat="44.73388" lon="-0.1622">
        <ele>43.6</ele>
        <time>2016-02-07T10:47:13Z</time>
      </trkpt>
      <trkpt lat="44.73395" lon="-0.16234">
        <ele>-10</ele>
        <time>2016-02-07T10:47:17Z</time>
      </trkpt>
      <trkpt lat="44.73398" lon="-0.16245">
        <ele>-13</ele>
        <time>2016-02-07T10:47:27Z</time>
      </trkpt>
      <trkpt lat="44.734" lon="-0.16257">
        <ele>-12</ele>
        <time>2016-02-07T10:47:37Z</time>
      </trkpt>
      <trkpt lat="44.73403" lon="-0.16268">
        <ele>-9</ele>
        <time>2016-02-07T10:47:49Z</time>
      </trkpt>
      <trkpt lat="44.73404" lon="-0.1628">
        <ele>-21</ele>
        <time>2016-02-07T10:48:14Z</time>
      </trkpt>
      <trkpt lat="44.73404" lon="-0.1628">
        <ele>-19</ele>
        <time>2016-02-07T10:48:51Z</time>
      </trkpt>
      <trkpt lat="44.73415" lon="-0.16286">
        <ele>-11</ele>
        <time>2016-02-07T10:48:55Z</time>
      </trkpt>
      <trkpt lat="44.73422" lon="-0.16293">
        <ele>-11</ele>
        <time>2016-02-07T10:49:02Z</time>
      </trkpt>
      <trkpt lat="44.73423" lon="-0.16305">
        <ele>-13</ele>
        <time>2016-02-07T10:49:08Z</time>
      </trkpt>
      <trkpt lat="44.73423" lon="-0.16309">
        <ele>-12</ele>
        <time>2016-02-07T10:49:40Z</time>
      </trkpt>
      <trkpt lat="44.73421" lon="-0.16323">
        <ele>-1</ele>
        <time>2016-02-07T10:49:44Z</time>
      </trkpt>
      <trkpt lat="44.73421" lon="-0.16323">
        <ele>-1</ele>
        <time>2016-02-07T10:50:00Z</time>
      </trkpt>
      <trkpt lat="44.73411" lon="-0.16337">
        <ele>48.1</ele>
        <time>2016-02-07T10:50:05Z</time>
      </trkpt>
      <trkpt lat="44.73408" lon="-0.16347">
        <ele>-2</ele>
        <time>2016-02-07T10:50:10Z</time>
      </trkpt>
      <trkpt lat="44.73404" lon="-0.16346">
        <ele>-8</ele>
        <time>2016-02-07T10:50:49Z</time>
      </trkpt>
      <trkpt lat="44.73415" lon="-0.16343">
        <ele>-17</ele>
        <time>2016-02-07T10:50:53Z</time>
      </trkpt>
      <trkpt lat="44.73415" lon="-0.16343">
        <ele>-17</ele>
        <time>2016-02-07T10:52:07Z</time>
      </trkpt>
      <trkpt lat="44.73416" lon="-0.16328">
        <ele>-6</ele>
        <time>2016-02-07T10:52:11Z</time>
      </trkpt>
      <trkpt lat="44.73416" lon="-0.16328">
        <ele>-6</ele>
        <time>2016-02-07T10:52:39Z</time>
      </trkpt>
      <trkpt lat="44.73425" lon="-0.16334">
        <ele>-10</ele>
        <time>2016-02-07T10:52:43Z</time>
      </trkpt>
      <trkpt lat="44.73425" lon="-0.16336">
        <ele>-4</ele>
        <time>2016-02-07T10:55:55Z</time>
      </trkpt>
      <trkpt lat="44.7344" lon="-0.16329">
        <ele>-16</ele>
        <time>2016-02-07T10:55:59Z</time>
      </trkpt>
      <trkpt lat="44.73448" lon="-0.16325">
        <ele>-18</ele>
        <time>2016-02-07T10:56:06Z</time>
      </trkpt>
      <trkpt lat="44.73457" lon="-0.16324">
        <ele>-17</ele>
        <time>2016-02-07T10:56:11Z</time>
      </trkpt>
      <trkpt lat="44.73464" lon="-0.16322">
        <ele>-17</ele>
        <time>2016-02-07T10:56:16Z</time>
      </trkpt>
      <trkpt lat="44.73469" lon="-0.1632">
        <ele>-17</ele>
        <time>2016-02-07T10:56:29Z</time>
      </trkpt>
      <trkpt lat="44.73477" lon="-0.16315">
        <ele>-18</ele>
        <time>2016-02-07T10:56:35Z</time>
      </trkpt>
      <trkpt lat="44.73483" lon="-0.16308">
        <ele>-19</ele>
        <time>2016-02-07T10:56:42Z</time>
      </trkpt>
      <trkpt lat="44.73486" lon="-0.16296">
        <ele>-18</ele>
        <time>2016-02-07T10:56:50Z</time>
      </trkpt>
      <trkpt lat="44.73492" lon="-0.16287">
        <ele>-19</ele>
        <time>2016-02-07T10:57:00Z</time>
      </trkpt>
      <trkpt lat="44.73496" lon="-0.16279">
        <ele>-16</ele>
        <time>2016-02-07T10:57:09Z</time>
      </trkpt>
      <trkpt lat="44.73503" lon="-0.16284">
        <ele>-10</ele>
        <time>2016-02-07T10:57:46Z</time>
      </trkpt>
      <trkpt lat="44.73504" lon="-0.16287">
        <ele>-7</ele>
        <time>2016-02-07T10:57:50Z</time>
      </trkpt>
      <trkpt lat="44.73504" lon="-0.16287">
        <ele>-7</ele>
        <time>2016-02-07T10:57:50Z</time>
      </trkpt>
    </trkseg>
  </trk>
</gpx>